<?xml version="1.0" encoding="UTF-8" standalone="no" ?>
<gpx xmlns="http://www.topografix.com/GPX/1/1" xmlns:xsi="http://www.w3.org/2001/XMLSchema-instance" xsi:schemaLocation="http://www.topografix.com/GPX/1/1 http://www.topografix.com/GPX/1/1/gpx.xsd" version="1.1" creator="VisuGPX - https://www.visugpx.com">
  <metadata>
    <name>ST JULIEN DU PUY</name>
    <desc><![CDATA[Se garer au lieux dit La Bartelle   parking + panneau rando  
10 km à travers les côteaux ]]></desc>
  </metadata>
  <trk>
    <name><![CDATA[ST J-07-21 12:36:40]]></name>
    <trkseg>
      <trkpt lat="43.75673" lon="2.08401">
        <ele>207.78</ele>
        <time>2020-07-21T07:52:04Z</time>
      </trkpt>
      <trkpt lat="43.75673" lon="2.08401">
        <ele>207.78</ele>
        <time>2020-07-21T07:52:05Z</time>
      </trkpt>
      <trkpt lat="43.75673" lon="2.08401">
        <ele>203.94</ele>
        <time>2020-07-21T07:52:08Z</time>
      </trkpt>
      <trkpt lat="43.75673" lon="2.08401">
        <ele>203.94</ele>
        <time>2020-07-21T07:52:09Z</time>
      </trkpt>
      <trkpt lat="43.75671" lon="2.084">
        <ele>203.94</ele>
        <time>2020-07-21T07:52:13Z</time>
      </trkpt>
      <trkpt lat="43.75657" lon="2.08407">
        <ele>203.94</ele>
        <time>2020-07-21T07:52:27Z</time>
      </trkpt>
      <trkpt lat="43.75652" lon="2.08412">
        <ele>203.94</ele>
        <time>2020-07-21T07:52:32Z</time>
      </trkpt>
      <trkpt lat="43.75636" lon="2.08427">
        <ele>203.94</ele>
        <time>2020-07-21T07:52:49Z</time>
      </trkpt>
      <trkpt lat="43.75619" lon="2.08444">
        <ele>202.98</ele>
        <time>2020-07-21T07:53:05Z</time>
      </trkpt>
      <trkpt lat="43.75612" lon="2.08452">
        <ele>202.49</ele>
        <time>2020-07-21T07:53:11Z</time>
      </trkpt>
      <trkpt lat="43.75607" lon="2.08459">
        <ele>202.49</ele>
        <time>2020-07-21T07:53:16Z</time>
      </trkpt>
      <trkpt lat="43.75595" lon="2.08484">
        <ele>202.49</ele>
        <time>2020-07-21T07:53:33Z</time>
      </trkpt>
      <trkpt lat="43.75589" lon="2.08501">
        <ele>201.53</ele>
        <time>2020-07-21T07:53:43Z</time>
      </trkpt>
      <trkpt lat="43.75581" lon="2.08526">
        <ele>200.57</ele>
        <time>2020-07-21T07:53:57Z</time>
      </trkpt>
      <trkpt lat="43.75581" lon="2.08527">
        <ele>200.09</ele>
        <time>2020-07-21T07:53:58Z</time>
      </trkpt>
      <trkpt lat="43.75571" lon="2.08551">
        <ele>199.13</ele>
        <time>2020-07-21T07:54:14Z</time>
      </trkpt>
      <trkpt lat="43.75569" lon="2.08558">
        <ele>198.65</ele>
        <time>2020-07-21T07:54:18Z</time>
      </trkpt>
      <trkpt lat="43.75567" lon="2.08565">
        <ele>198.65</ele>
        <time>2020-07-21T07:54:22Z</time>
      </trkpt>
      <trkpt lat="43.75559" lon="2.08591">
        <ele>197.21</ele>
        <time>2020-07-21T07:54:37Z</time>
      </trkpt>
      <trkpt lat="43.7555" lon="2.08609">
        <ele>196.25</ele>
        <time>2020-07-21T07:54:48Z</time>
      </trkpt>
      <trkpt lat="43.75546" lon="2.0863">
        <ele>195.28</ele>
        <time>2020-07-21T07:55:01Z</time>
      </trkpt>
      <trkpt lat="43.75537" lon="2.08654">
        <ele>194.32</ele>
        <time>2020-07-21T07:55:15Z</time>
      </trkpt>
      <trkpt lat="43.75533" lon="2.08665">
        <ele>193.84</ele>
        <time>2020-07-21T07:55:21Z</time>
      </trkpt>
      <trkpt lat="43.75532" lon="2.08667">
        <ele>193.36</ele>
        <time>2020-07-21T07:55:22Z</time>
      </trkpt>
      <trkpt lat="43.7553" lon="2.08669">
        <ele>193.36</ele>
        <time>2020-07-21T07:55:23Z</time>
      </trkpt>
      <trkpt lat="43.75529" lon="2.08671">
        <ele>193.36</ele>
        <time>2020-07-21T07:55:24Z</time>
      </trkpt>
      <trkpt lat="43.75528" lon="2.08673">
        <ele>193.36</ele>
        <time>2020-07-21T07:55:25Z</time>
      </trkpt>
      <trkpt lat="43.75527" lon="2.08675">
        <ele>192.88</ele>
        <time>2020-07-21T07:55:26Z</time>
      </trkpt>
      <trkpt lat="43.75526" lon="2.08677">
        <ele>192.88</ele>
        <time>2020-07-21T07:55:27Z</time>
      </trkpt>
      <trkpt lat="43.75525" lon="2.08679">
        <ele>192.88</ele>
        <time>2020-07-21T07:55:28Z</time>
      </trkpt>
      <trkpt lat="43.75524" lon="2.08681">
        <ele>192.88</ele>
        <time>2020-07-21T07:55:29Z</time>
      </trkpt>
      <trkpt lat="43.75522" lon="2.08682">
        <ele>192.88</ele>
        <time>2020-07-21T07:55:30Z</time>
      </trkpt>
      <trkpt lat="43.75521" lon="2.08683">
        <ele>192.88</ele>
        <time>2020-07-21T07:55:31Z</time>
      </trkpt>
      <trkpt lat="43.75516" lon="2.08706">
        <ele>190.96</ele>
        <time>2020-07-21T07:55:43Z</time>
      </trkpt>
      <trkpt lat="43.75506" lon="2.08737">
        <ele>190.96</ele>
        <time>2020-07-21T07:56:02Z</time>
      </trkpt>
      <trkpt lat="43.75502" lon="2.08758">
        <ele>190</ele>
        <time>2020-07-21T07:56:19Z</time>
      </trkpt>
      <trkpt lat="43.755" lon="2.08782">
        <ele>190</ele>
        <time>2020-07-21T07:56:39Z</time>
      </trkpt>
      <trkpt lat="43.75497" lon="2.08807">
        <ele>190</ele>
        <time>2020-07-21T07:56:53Z</time>
      </trkpt>
      <trkpt lat="43.75499" lon="2.08821">
        <ele>189.52</ele>
        <time>2020-07-21T07:57:01Z</time>
      </trkpt>
      <trkpt lat="43.75499" lon="2.08823">
        <ele>189.52</ele>
        <time>2020-07-21T07:57:02Z</time>
      </trkpt>
      <trkpt lat="43.755" lon="2.08825">
        <ele>189.52</ele>
        <time>2020-07-21T07:57:03Z</time>
      </trkpt>
      <trkpt lat="43.755" lon="2.08827">
        <ele>189.52</ele>
        <time>2020-07-21T07:57:04Z</time>
      </trkpt>
      <trkpt lat="43.755" lon="2.08829">
        <ele>189.52</ele>
        <time>2020-07-21T07:57:05Z</time>
      </trkpt>
      <trkpt lat="43.755" lon="2.08831">
        <ele>189.52</ele>
        <time>2020-07-21T07:57:06Z</time>
      </trkpt>
      <trkpt lat="43.755" lon="2.08833">
        <ele>189.52</ele>
        <time>2020-07-21T07:57:07Z</time>
      </trkpt>
      <trkpt lat="43.75499" lon="2.08835">
        <ele>189.52</ele>
        <time>2020-07-21T07:57:08Z</time>
      </trkpt>
      <trkpt lat="43.75499" lon="2.08837">
        <ele>189.52</ele>
        <time>2020-07-21T07:57:09Z</time>
      </trkpt>
      <trkpt lat="43.75499" lon="2.08839">
        <ele>189.52</ele>
        <time>2020-07-21T07:57:10Z</time>
      </trkpt>
      <trkpt lat="43.75498" lon="2.08841">
        <ele>189.52</ele>
        <time>2020-07-21T07:57:11Z</time>
      </trkpt>
      <trkpt lat="43.75498" lon="2.08843">
        <ele>189.52</ele>
        <time>2020-07-21T07:57:12Z</time>
      </trkpt>
      <trkpt lat="43.75501" lon="2.08856">
        <ele>189.52</ele>
        <time>2020-07-21T07:57:21Z</time>
      </trkpt>
      <trkpt lat="43.75501" lon="2.08857">
        <ele>189.52</ele>
        <time>2020-07-21T07:57:22Z</time>
      </trkpt>
      <trkpt lat="43.75502" lon="2.08858">
        <ele>189.52</ele>
        <time>2020-07-21T07:57:23Z</time>
      </trkpt>
      <trkpt lat="43.75503" lon="2.08859">
        <ele>189.52</ele>
        <time>2020-07-21T07:57:24Z</time>
      </trkpt>
      <trkpt lat="43.75508" lon="2.08881">
        <ele>189.52</ele>
        <time>2020-07-21T07:57:37Z</time>
      </trkpt>
      <trkpt lat="43.75529" lon="2.08901">
        <ele>189.52</ele>
        <time>2020-07-21T07:57:56Z</time>
      </trkpt>
      <trkpt lat="43.75542" lon="2.08907">
        <ele>189.52</ele>
        <time>2020-07-21T07:58:07Z</time>
      </trkpt>
      <trkpt lat="43.75542" lon="2.0891">
        <ele>189.52</ele>
        <time>2020-07-21T07:58:09Z</time>
      </trkpt>
      <trkpt lat="43.75537" lon="2.08914">
        <ele>189.52</ele>
        <time>2020-07-21T07:58:14Z</time>
      </trkpt>
      <trkpt lat="43.75513" lon="2.08908">
        <ele>189.04</ele>
        <time>2020-07-21T07:58:34Z</time>
      </trkpt>
      <trkpt lat="43.75497" lon="2.08915">
        <ele>188.08</ele>
        <time>2020-07-21T07:58:49Z</time>
      </trkpt>
      <trkpt lat="43.75496" lon="2.08915">
        <ele>188.08</ele>
        <time>2020-07-21T07:58:50Z</time>
      </trkpt>
      <trkpt lat="43.75492" lon="2.08919">
        <ele>187.59</ele>
        <time>2020-07-21T07:58:55Z</time>
      </trkpt>
      <trkpt lat="43.75491" lon="2.0892">
        <ele>187.59</ele>
        <time>2020-07-21T07:59:01Z</time>
      </trkpt>
      <trkpt lat="43.75486" lon="2.08924">
        <ele>187.59</ele>
        <time>2020-07-21T07:59:13Z</time>
      </trkpt>
      <trkpt lat="43.75483" lon="2.08925">
        <ele>187.59</ele>
        <time>2020-07-21T07:59:31Z</time>
      </trkpt>
      <trkpt lat="43.75468" lon="2.08931">
        <ele>187.59</ele>
        <time>2020-07-21T07:59:49Z</time>
      </trkpt>
      <trkpt lat="43.7546" lon="2.08934">
        <ele>187.59</ele>
        <time>2020-07-21T08:00:02Z</time>
      </trkpt>
      <trkpt lat="43.75453" lon="2.08938">
        <ele>187.59</ele>
        <time>2020-07-21T08:00:23Z</time>
      </trkpt>
      <trkpt lat="43.75447" lon="2.08941">
        <ele>187.59</ele>
        <time>2020-07-21T08:00:34Z</time>
      </trkpt>
      <trkpt lat="43.75438" lon="2.08946">
        <ele>187.59</ele>
        <time>2020-07-21T08:00:47Z</time>
      </trkpt>
      <trkpt lat="43.75416" lon="2.08955">
        <ele>187.59</ele>
        <time>2020-07-21T08:01:05Z</time>
      </trkpt>
      <trkpt lat="43.75391" lon="2.08967">
        <ele>187.59</ele>
        <time>2020-07-21T08:01:25Z</time>
      </trkpt>
      <trkpt lat="43.75367" lon="2.08977">
        <ele>187.59</ele>
        <time>2020-07-21T08:01:44Z</time>
      </trkpt>
      <trkpt lat="43.75339" lon="2.08991">
        <ele>187.59</ele>
        <time>2020-07-21T08:02:07Z</time>
      </trkpt>
      <trkpt lat="43.75314" lon="2.09002">
        <ele>188.56</ele>
        <time>2020-07-21T08:02:28Z</time>
      </trkpt>
      <trkpt lat="43.75287" lon="2.09016">
        <ele>188.56</ele>
        <time>2020-07-21T08:02:51Z</time>
      </trkpt>
      <trkpt lat="43.75259" lon="2.09029">
        <ele>189.04</ele>
        <time>2020-07-21T08:03:14Z</time>
      </trkpt>
      <trkpt lat="43.75232" lon="2.09039">
        <ele>189.04</ele>
        <time>2020-07-21T08:03:34Z</time>
      </trkpt>
      <trkpt lat="43.75203" lon="2.09055">
        <ele>189.04</ele>
        <time>2020-07-21T08:03:58Z</time>
      </trkpt>
      <trkpt lat="43.75184" lon="2.0907">
        <ele>189.52</ele>
        <time>2020-07-21T08:04:17Z</time>
      </trkpt>
      <trkpt lat="43.75182" lon="2.09073">
        <ele>189.52</ele>
        <time>2020-07-21T08:04:30Z</time>
      </trkpt>
      <trkpt lat="43.7518" lon="2.0908">
        <ele>189.52</ele>
        <time>2020-07-21T08:04:47Z</time>
      </trkpt>
      <trkpt lat="43.75178" lon="2.09086">
        <ele>189.52</ele>
        <time>2020-07-21T08:04:52Z</time>
      </trkpt>
      <trkpt lat="43.75174" lon="2.09089">
        <ele>189.52</ele>
        <time>2020-07-21T08:04:57Z</time>
      </trkpt>
      <trkpt lat="43.75169" lon="2.0909">
        <ele>189.52</ele>
        <time>2020-07-21T08:05:02Z</time>
      </trkpt>
      <trkpt lat="43.75166" lon="2.0909">
        <ele>189.52</ele>
        <time>2020-07-21T08:05:05Z</time>
      </trkpt>
      <trkpt lat="43.75152" lon="2.09094">
        <ele>189.52</ele>
        <time>2020-07-21T08:05:19Z</time>
      </trkpt>
      <trkpt lat="43.75134" lon="2.09107">
        <ele>189.52</ele>
        <time>2020-07-21T08:05:38Z</time>
      </trkpt>
      <trkpt lat="43.75118" lon="2.09122">
        <ele>189.52</ele>
        <time>2020-07-21T08:05:55Z</time>
      </trkpt>
      <trkpt lat="43.75096" lon="2.09142">
        <ele>190</ele>
        <time>2020-07-21T08:06:15Z</time>
      </trkpt>
      <trkpt lat="43.75074" lon="2.0916">
        <ele>190</ele>
        <time>2020-07-21T08:06:34Z</time>
      </trkpt>
      <trkpt lat="43.75055" lon="2.0918">
        <ele>190.96</ele>
        <time>2020-07-21T08:06:54Z</time>
      </trkpt>
      <trkpt lat="43.75036" lon="2.09198">
        <ele>190.96</ele>
        <time>2020-07-21T08:07:12Z</time>
      </trkpt>
      <trkpt lat="43.75015" lon="2.09226">
        <ele>190.96</ele>
        <time>2020-07-21T08:07:35Z</time>
      </trkpt>
      <trkpt lat="43.74995" lon="2.09256">
        <ele>191.44</ele>
        <time>2020-07-21T08:07:57Z</time>
      </trkpt>
      <trkpt lat="43.74979" lon="2.09281">
        <ele>191.92</ele>
        <time>2020-07-21T08:08:16Z</time>
      </trkpt>
      <trkpt lat="43.74966" lon="2.09295">
        <ele>191.92</ele>
        <time>2020-07-21T08:08:31Z</time>
      </trkpt>
      <trkpt lat="43.7495" lon="2.09317">
        <ele>191.92</ele>
        <time>2020-07-21T08:08:50Z</time>
      </trkpt>
      <trkpt lat="43.74927" lon="2.09342">
        <ele>191.92</ele>
        <time>2020-07-21T08:09:11Z</time>
      </trkpt>
      <trkpt lat="43.74912" lon="2.09361">
        <ele>191.92</ele>
        <time>2020-07-21T08:09:28Z</time>
      </trkpt>
      <trkpt lat="43.74898" lon="2.0938">
        <ele>191.92</ele>
        <time>2020-07-21T08:09:46Z</time>
      </trkpt>
      <trkpt lat="43.74878" lon="2.09402">
        <ele>191.92</ele>
        <time>2020-07-21T08:10:05Z</time>
      </trkpt>
      <trkpt lat="43.74858" lon="2.09427">
        <ele>191.92</ele>
        <time>2020-07-21T08:10:23Z</time>
      </trkpt>
      <trkpt lat="43.74844" lon="2.09454">
        <ele>191.92</ele>
        <time>2020-07-21T08:10:41Z</time>
      </trkpt>
      <trkpt lat="43.74833" lon="2.09475">
        <ele>191.92</ele>
        <time>2020-07-21T08:11:00Z</time>
      </trkpt>
      <trkpt lat="43.7483" lon="2.09479">
        <ele>191.44</ele>
        <time>2020-07-21T08:11:24Z</time>
      </trkpt>
      <trkpt lat="43.74829" lon="2.09478">
        <ele>191.44</ele>
        <time>2020-07-21T08:11:49Z</time>
      </trkpt>
      <trkpt lat="43.74829" lon="2.09479">
        <ele>191.44</ele>
        <time>2020-07-21T08:12:06Z</time>
      </trkpt>
      <trkpt lat="43.74827" lon="2.0948">
        <ele>192.88</ele>
        <time>2020-07-21T08:12:19Z</time>
      </trkpt>
      <trkpt lat="43.74823" lon="2.09484">
        <ele>192.88</ele>
        <time>2020-07-21T08:12:24Z</time>
      </trkpt>
      <trkpt lat="43.74819" lon="2.09491">
        <ele>192.88</ele>
        <time>2020-07-21T08:12:30Z</time>
      </trkpt>
      <trkpt lat="43.74818" lon="2.09496">
        <ele>192.88</ele>
        <time>2020-07-21T08:12:34Z</time>
      </trkpt>
      <trkpt lat="43.74813" lon="2.09511">
        <ele>193.36</ele>
        <time>2020-07-21T08:12:49Z</time>
      </trkpt>
      <trkpt lat="43.74808" lon="2.09518">
        <ele>193.36</ele>
        <time>2020-07-21T08:13:05Z</time>
      </trkpt>
      <trkpt lat="43.74793" lon="2.09541">
        <ele>193.36</ele>
        <time>2020-07-21T08:13:23Z</time>
      </trkpt>
      <trkpt lat="43.74785" lon="2.09555">
        <ele>193.36</ele>
        <time>2020-07-21T08:13:33Z</time>
      </trkpt>
      <trkpt lat="43.7476" lon="2.09585">
        <ele>193.36</ele>
        <time>2020-07-21T08:13:58Z</time>
      </trkpt>
      <trkpt lat="43.74741" lon="2.0961">
        <ele>193.36</ele>
        <time>2020-07-21T08:14:19Z</time>
      </trkpt>
      <trkpt lat="43.74728" lon="2.09627">
        <ele>193.36</ele>
        <time>2020-07-21T08:14:35Z</time>
      </trkpt>
      <trkpt lat="43.74714" lon="2.09645">
        <ele>193.36</ele>
        <time>2020-07-21T08:14:51Z</time>
      </trkpt>
      <trkpt lat="43.74702" lon="2.09662">
        <ele>193.36</ele>
        <time>2020-07-21T08:15:06Z</time>
      </trkpt>
      <trkpt lat="43.74697" lon="2.09672">
        <ele>193.36</ele>
        <time>2020-07-21T08:15:13Z</time>
      </trkpt>
      <trkpt lat="43.74694" lon="2.09676">
        <ele>193.36</ele>
        <time>2020-07-21T08:15:17Z</time>
      </trkpt>
      <trkpt lat="43.74688" lon="2.09688">
        <ele>193.84</ele>
        <time>2020-07-21T08:15:27Z</time>
      </trkpt>
      <trkpt lat="43.74684" lon="2.09697">
        <ele>193.84</ele>
        <time>2020-07-21T08:15:34Z</time>
      </trkpt>
      <trkpt lat="43.74678" lon="2.09717">
        <ele>193.84</ele>
        <time>2020-07-21T08:15:49Z</time>
      </trkpt>
      <trkpt lat="43.74671" lon="2.09743">
        <ele>193.84</ele>
        <time>2020-07-21T08:16:07Z</time>
      </trkpt>
      <trkpt lat="43.7467" lon="2.09751">
        <ele>194.32</ele>
        <time>2020-07-21T08:16:27Z</time>
      </trkpt>
      <trkpt lat="43.74668" lon="2.09756">
        <ele>194.32</ele>
        <time>2020-07-21T08:16:31Z</time>
      </trkpt>
      <trkpt lat="43.74668" lon="2.09765">
        <ele>194.8</ele>
        <time>2020-07-21T08:16:39Z</time>
      </trkpt>
      <trkpt lat="43.74662" lon="2.09767">
        <ele>195.28</ele>
        <time>2020-07-21T08:16:53Z</time>
      </trkpt>
      <trkpt lat="43.74658" lon="2.09765">
        <ele>195.28</ele>
        <time>2020-07-21T08:17:06Z</time>
      </trkpt>
      <trkpt lat="43.74662" lon="2.09769">
        <ele>195.28</ele>
        <time>2020-07-21T08:17:23Z</time>
      </trkpt>
      <trkpt lat="43.74664" lon="2.09769">
        <ele>195.28</ele>
        <time>2020-07-21T08:17:42Z</time>
      </trkpt>
      <trkpt lat="43.74664" lon="2.09768">
        <ele>195.28</ele>
        <time>2020-07-21T08:17:54Z</time>
      </trkpt>
      <trkpt lat="43.74666" lon="2.09775">
        <ele>195.28</ele>
        <time>2020-07-21T08:18:00Z</time>
      </trkpt>
      <trkpt lat="43.74653" lon="2.09803">
        <ele>195.28</ele>
        <time>2020-07-21T08:18:20Z</time>
      </trkpt>
      <trkpt lat="43.74644" lon="2.09843">
        <ele>195.28</ele>
        <time>2020-07-21T08:18:42Z</time>
      </trkpt>
      <trkpt lat="43.74633" lon="2.0988">
        <ele>195.28</ele>
        <time>2020-07-21T08:19:04Z</time>
      </trkpt>
      <trkpt lat="43.74621" lon="2.09917">
        <ele>195.28</ele>
        <time>2020-07-21T08:19:27Z</time>
      </trkpt>
      <trkpt lat="43.74613" lon="2.09946">
        <ele>195.28</ele>
        <time>2020-07-21T08:19:48Z</time>
      </trkpt>
      <trkpt lat="43.74613" lon="2.09945">
        <ele>195.28</ele>
        <time>2020-07-21T08:19:56Z</time>
      </trkpt>
      <trkpt lat="43.74601" lon="2.09977">
        <ele>195.77</ele>
        <time>2020-07-21T08:20:17Z</time>
      </trkpt>
      <trkpt lat="43.74589" lon="2.1001">
        <ele>195.77</ele>
        <time>2020-07-21T08:20:36Z</time>
      </trkpt>
      <trkpt lat="43.74576" lon="2.10041">
        <ele>196.25</ele>
        <time>2020-07-21T08:20:54Z</time>
      </trkpt>
      <trkpt lat="43.74565" lon="2.10074">
        <ele>195.77</ele>
        <time>2020-07-21T08:21:13Z</time>
      </trkpt>
      <trkpt lat="43.74554" lon="2.10107">
        <ele>195.77</ele>
        <time>2020-07-21T08:21:32Z</time>
      </trkpt>
      <trkpt lat="43.74543" lon="2.1014">
        <ele>196.25</ele>
        <time>2020-07-21T08:21:51Z</time>
      </trkpt>
      <trkpt lat="43.74534" lon="2.10168">
        <ele>196.73</ele>
        <time>2020-07-21T08:22:08Z</time>
      </trkpt>
      <trkpt lat="43.74522" lon="2.10205">
        <ele>196.73</ele>
        <time>2020-07-21T08:22:29Z</time>
      </trkpt>
      <trkpt lat="43.7451" lon="2.1024">
        <ele>197.21</ele>
        <time>2020-07-21T08:22:49Z</time>
      </trkpt>
      <trkpt lat="43.74499" lon="2.10274">
        <ele>197.21</ele>
        <time>2020-07-21T08:23:08Z</time>
      </trkpt>
      <trkpt lat="43.74487" lon="2.10311">
        <ele>197.69</ele>
        <time>2020-07-21T08:23:30Z</time>
      </trkpt>
      <trkpt lat="43.74476" lon="2.10348">
        <ele>197.69</ele>
        <time>2020-07-21T08:23:51Z</time>
      </trkpt>
      <trkpt lat="43.74465" lon="2.1038">
        <ele>197.69</ele>
        <time>2020-07-21T08:24:10Z</time>
      </trkpt>
      <trkpt lat="43.7446" lon="2.10404">
        <ele>198.17</ele>
        <time>2020-07-21T08:24:28Z</time>
      </trkpt>
      <trkpt lat="43.7446" lon="2.10407">
        <ele>198.65</ele>
        <time>2020-07-21T08:24:31Z</time>
      </trkpt>
      <trkpt lat="43.74452" lon="2.10429">
        <ele>197.69</ele>
        <time>2020-07-21T08:24:46Z</time>
      </trkpt>
      <trkpt lat="43.74444" lon="2.10452">
        <ele>197.69</ele>
        <time>2020-07-21T08:25:05Z</time>
      </trkpt>
      <trkpt lat="43.74436" lon="2.10479">
        <ele>197.69</ele>
        <time>2020-07-21T08:25:22Z</time>
      </trkpt>
      <trkpt lat="43.74429" lon="2.10515">
        <ele>197.69</ele>
        <time>2020-07-21T08:25:42Z</time>
      </trkpt>
      <trkpt lat="43.7442" lon="2.10553">
        <ele>197.69</ele>
        <time>2020-07-21T08:26:03Z</time>
      </trkpt>
      <trkpt lat="43.7441" lon="2.106">
        <ele>199.13</ele>
        <time>2020-07-21T08:26:30Z</time>
      </trkpt>
      <trkpt lat="43.74403" lon="2.10629">
        <ele>199.13</ele>
        <time>2020-07-21T08:26:47Z</time>
      </trkpt>
      <trkpt lat="43.74396" lon="2.10662">
        <ele>199.61</ele>
        <time>2020-07-21T08:27:06Z</time>
      </trkpt>
      <trkpt lat="43.74388" lon="2.10694">
        <ele>200.09</ele>
        <time>2020-07-21T08:27:25Z</time>
      </trkpt>
      <trkpt lat="43.74384" lon="2.10725">
        <ele>200.57</ele>
        <time>2020-07-21T08:27:43Z</time>
      </trkpt>
      <trkpt lat="43.74374" lon="2.1075">
        <ele>201.05</ele>
        <time>2020-07-21T08:27:59Z</time>
      </trkpt>
      <trkpt lat="43.74363" lon="2.10779">
        <ele>201.53</ele>
        <time>2020-07-21T08:28:17Z</time>
      </trkpt>
      <trkpt lat="43.74352" lon="2.1081">
        <ele>201.53</ele>
        <time>2020-07-21T08:28:37Z</time>
      </trkpt>
      <trkpt lat="43.74346" lon="2.10844">
        <ele>201.53</ele>
        <time>2020-07-21T08:28:54Z</time>
      </trkpt>
      <trkpt lat="43.74338" lon="2.10883">
        <ele>202.49</ele>
        <time>2020-07-21T08:29:15Z</time>
      </trkpt>
      <trkpt lat="43.74331" lon="2.10916">
        <ele>202.49</ele>
        <time>2020-07-21T08:29:33Z</time>
      </trkpt>
      <trkpt lat="43.74325" lon="2.1095">
        <ele>202.49</ele>
        <time>2020-07-21T08:29:52Z</time>
      </trkpt>
      <trkpt lat="43.74321" lon="2.10983">
        <ele>202.98</ele>
        <time>2020-07-21T08:30:09Z</time>
      </trkpt>
      <trkpt lat="43.74316" lon="2.11014">
        <ele>202.98</ele>
        <time>2020-07-21T08:30:29Z</time>
      </trkpt>
      <trkpt lat="43.74315" lon="2.11023">
        <ele>202.98</ele>
        <time>2020-07-21T08:30:42Z</time>
      </trkpt>
      <trkpt lat="43.74309" lon="2.11056">
        <ele>202.98</ele>
        <time>2020-07-21T08:31:03Z</time>
      </trkpt>
      <trkpt lat="43.74306" lon="2.11066">
        <ele>203.46</ele>
        <time>2020-07-21T08:31:11Z</time>
      </trkpt>
      <trkpt lat="43.74302" lon="2.11094">
        <ele>203.46</ele>
        <time>2020-07-21T08:31:27Z</time>
      </trkpt>
      <trkpt lat="43.74297" lon="2.11126">
        <ele>203.46</ele>
        <time>2020-07-21T08:31:45Z</time>
      </trkpt>
      <trkpt lat="43.74293" lon="2.11158">
        <ele>203.94</ele>
        <time>2020-07-21T08:32:03Z</time>
      </trkpt>
      <trkpt lat="43.74293" lon="2.1116">
        <ele>203.94</ele>
        <time>2020-07-21T08:32:04Z</time>
      </trkpt>
      <trkpt lat="43.74289" lon="2.11193">
        <ele>203.94</ele>
        <time>2020-07-21T08:32:22Z</time>
      </trkpt>
      <trkpt lat="43.74285" lon="2.11229">
        <ele>203.94</ele>
        <time>2020-07-21T08:32:41Z</time>
      </trkpt>
      <trkpt lat="43.74282" lon="2.11262">
        <ele>204.42</ele>
        <time>2020-07-21T08:33:01Z</time>
      </trkpt>
      <trkpt lat="43.74284" lon="2.11281">
        <ele>205.38</ele>
        <time>2020-07-21T08:33:14Z</time>
      </trkpt>
      <trkpt lat="43.74282" lon="2.11293">
        <ele>205.86</ele>
        <time>2020-07-21T08:33:21Z</time>
      </trkpt>
      <trkpt lat="43.74275" lon="2.11305">
        <ele>205.86</ele>
        <time>2020-07-21T08:33:36Z</time>
      </trkpt>
      <trkpt lat="43.74277" lon="2.11308">
        <ele>205.86</ele>
        <time>2020-07-21T08:33:48Z</time>
      </trkpt>
      <trkpt lat="43.74295" lon="2.11311">
        <ele>206.82</ele>
        <time>2020-07-21T08:34:06Z</time>
      </trkpt>
      <trkpt lat="43.74313" lon="2.11303">
        <ele>207.78</ele>
        <time>2020-07-21T08:34:24Z</time>
      </trkpt>
      <trkpt lat="43.74334" lon="2.1129">
        <ele>208.74</ele>
        <time>2020-07-21T08:34:44Z</time>
      </trkpt>
      <trkpt lat="43.74342" lon="2.11282">
        <ele>210.19</ele>
        <time>2020-07-21T08:34:58Z</time>
      </trkpt>
      <trkpt lat="43.74354" lon="2.11267">
        <ele>211.63</ele>
        <time>2020-07-21T08:35:17Z</time>
      </trkpt>
      <trkpt lat="43.74364" lon="2.11251">
        <ele>214.03</ele>
        <time>2020-07-21T08:35:32Z</time>
      </trkpt>
      <trkpt lat="43.74373" lon="2.11235">
        <ele>215.95</ele>
        <time>2020-07-21T08:35:49Z</time>
      </trkpt>
      <trkpt lat="43.74377" lon="2.11221">
        <ele>217.4</ele>
        <time>2020-07-21T08:36:04Z</time>
      </trkpt>
      <trkpt lat="43.7438" lon="2.1121">
        <ele>217.88</ele>
        <time>2020-07-21T08:36:19Z</time>
      </trkpt>
      <trkpt lat="43.74383" lon="2.11207">
        <ele>218.36</ele>
        <time>2020-07-21T08:36:46Z</time>
      </trkpt>
      <trkpt lat="43.74384" lon="2.11205">
        <ele>218.36</ele>
        <time>2020-07-21T08:37:07Z</time>
      </trkpt>
      <trkpt lat="43.7439" lon="2.11193">
        <ele>219.8</ele>
        <time>2020-07-21T08:37:22Z</time>
      </trkpt>
      <trkpt lat="43.74392" lon="2.11188">
        <ele>220.28</ele>
        <time>2020-07-21T08:37:43Z</time>
      </trkpt>
      <trkpt lat="43.74394" lon="2.11188">
        <ele>220.28</ele>
        <time>2020-07-21T08:38:10Z</time>
      </trkpt>
      <trkpt lat="43.74405" lon="2.11175">
        <ele>222.2</ele>
        <time>2020-07-21T08:38:26Z</time>
      </trkpt>
      <trkpt lat="43.74418" lon="2.11161">
        <ele>223.64</ele>
        <time>2020-07-21T08:38:43Z</time>
      </trkpt>
      <trkpt lat="43.7443" lon="2.11151">
        <ele>226.05</ele>
        <time>2020-07-21T08:38:59Z</time>
      </trkpt>
      <trkpt lat="43.7444" lon="2.1114">
        <ele>227.97</ele>
        <time>2020-07-21T08:39:17Z</time>
      </trkpt>
      <trkpt lat="43.74446" lon="2.11133">
        <ele>228.45</ele>
        <time>2020-07-21T08:39:31Z</time>
      </trkpt>
      <trkpt lat="43.74455" lon="2.11123">
        <ele>230.37</ele>
        <time>2020-07-21T08:39:46Z</time>
      </trkpt>
      <trkpt lat="43.74471" lon="2.11114">
        <ele>232.78</ele>
        <time>2020-07-21T08:40:04Z</time>
      </trkpt>
      <trkpt lat="43.74488" lon="2.11106">
        <ele>234.22</ele>
        <time>2020-07-21T08:40:21Z</time>
      </trkpt>
      <trkpt lat="43.74489" lon="2.11106">
        <ele>234.7</ele>
        <time>2020-07-21T08:40:22Z</time>
      </trkpt>
      <trkpt lat="43.74507" lon="2.11105">
        <ele>236.62</ele>
        <time>2020-07-21T08:40:39Z</time>
      </trkpt>
      <trkpt lat="43.74523" lon="2.11109">
        <ele>238.54</ele>
        <time>2020-07-21T08:40:56Z</time>
      </trkpt>
      <trkpt lat="43.7454" lon="2.11109">
        <ele>240.47</ele>
        <time>2020-07-21T08:41:14Z</time>
      </trkpt>
      <trkpt lat="43.74551" lon="2.11103">
        <ele>241.91</ele>
        <time>2020-07-21T08:41:29Z</time>
      </trkpt>
      <trkpt lat="43.74562" lon="2.11091">
        <ele>243.83</ele>
        <time>2020-07-21T08:41:44Z</time>
      </trkpt>
      <trkpt lat="43.74576" lon="2.11078">
        <ele>245.75</ele>
        <time>2020-07-21T08:42:02Z</time>
      </trkpt>
      <trkpt lat="43.74592" lon="2.11068">
        <ele>249.12</ele>
        <time>2020-07-21T08:42:20Z</time>
      </trkpt>
      <trkpt lat="43.74608" lon="2.11065">
        <ele>251.52</ele>
        <time>2020-07-21T08:42:36Z</time>
      </trkpt>
      <trkpt lat="43.74623" lon="2.11066">
        <ele>253.44</ele>
        <time>2020-07-21T08:42:52Z</time>
      </trkpt>
      <trkpt lat="43.74636" lon="2.11066">
        <ele>254.89</ele>
        <time>2020-07-21T08:43:08Z</time>
      </trkpt>
      <trkpt lat="43.74654" lon="2.1107">
        <ele>256.33</ele>
        <time>2020-07-21T08:43:24Z</time>
      </trkpt>
      <trkpt lat="43.74666" lon="2.11064">
        <ele>257.77</ele>
        <time>2020-07-21T08:43:38Z</time>
      </trkpt>
      <trkpt lat="43.74682" lon="2.11044">
        <ele>258.73</ele>
        <time>2020-07-21T08:43:58Z</time>
      </trkpt>
      <trkpt lat="43.74683" lon="2.11023">
        <ele>260.17</ele>
        <time>2020-07-21T08:44:14Z</time>
      </trkpt>
      <trkpt lat="43.74684" lon="2.11013">
        <ele>261.14</ele>
        <time>2020-07-21T08:44:21Z</time>
      </trkpt>
      <trkpt lat="43.74695" lon="2.10998">
        <ele>263.54</ele>
        <time>2020-07-21T08:44:39Z</time>
      </trkpt>
      <trkpt lat="43.74697" lon="2.10997">
        <ele>263.54</ele>
        <time>2020-07-21T08:44:41Z</time>
      </trkpt>
      <trkpt lat="43.74713" lon="2.10984">
        <ele>265.94</ele>
        <time>2020-07-21T08:45:01Z</time>
      </trkpt>
      <trkpt lat="43.74719" lon="2.10985">
        <ele>267.38</ele>
        <time>2020-07-21T08:45:09Z</time>
      </trkpt>
      <trkpt lat="43.74725" lon="2.11003">
        <ele>269.79</ele>
        <time>2020-07-21T08:45:28Z</time>
      </trkpt>
      <trkpt lat="43.74729" lon="2.11016">
        <ele>271.23</ele>
        <time>2020-07-21T08:45:43Z</time>
      </trkpt>
      <trkpt lat="43.74734" lon="2.1103">
        <ele>273.63</ele>
        <time>2020-07-21T08:45:57Z</time>
      </trkpt>
      <trkpt lat="43.74742" lon="2.11044">
        <ele>275.56</ele>
        <time>2020-07-21T08:46:12Z</time>
      </trkpt>
      <trkpt lat="43.7476" lon="2.1106">
        <ele>277.96</ele>
        <time>2020-07-21T08:46:32Z</time>
      </trkpt>
      <trkpt lat="43.74774" lon="2.11069">
        <ele>278.44</ele>
        <time>2020-07-21T08:46:48Z</time>
      </trkpt>
      <trkpt lat="43.74789" lon="2.11079">
        <ele>278.92</ele>
        <time>2020-07-21T08:47:04Z</time>
      </trkpt>
      <trkpt lat="43.74804" lon="2.11089">
        <ele>278.92</ele>
        <time>2020-07-21T08:47:20Z</time>
      </trkpt>
      <trkpt lat="43.74805" lon="2.11094">
        <ele>278.92</ele>
        <time>2020-07-21T08:47:24Z</time>
      </trkpt>
      <trkpt lat="43.74787" lon="2.11112">
        <ele>279.88</ele>
        <time>2020-07-21T08:47:45Z</time>
      </trkpt>
      <trkpt lat="43.74772" lon="2.11129">
        <ele>280.36</ele>
        <time>2020-07-21T08:48:02Z</time>
      </trkpt>
      <trkpt lat="43.74766" lon="2.11137">
        <ele>280.36</ele>
        <time>2020-07-21T08:48:09Z</time>
      </trkpt>
      <trkpt lat="43.74756" lon="2.1116">
        <ele>280.84</ele>
        <time>2020-07-21T08:48:25Z</time>
      </trkpt>
      <trkpt lat="43.74744" lon="2.11197">
        <ele>280.84</ele>
        <time>2020-07-21T08:48:47Z</time>
      </trkpt>
      <trkpt lat="43.74742" lon="2.11202">
        <ele>281.32</ele>
        <time>2020-07-21T08:48:50Z</time>
      </trkpt>
      <trkpt lat="43.74731" lon="2.11228">
        <ele>281.8</ele>
        <time>2020-07-21T08:49:08Z</time>
      </trkpt>
      <trkpt lat="43.74717" lon="2.11256">
        <ele>282.28</ele>
        <time>2020-07-21T08:49:29Z</time>
      </trkpt>
      <trkpt lat="43.74712" lon="2.11267">
        <ele>282.28</ele>
        <time>2020-07-21T08:49:37Z</time>
      </trkpt>
      <trkpt lat="43.74707" lon="2.11304">
        <ele>283.25</ele>
        <time>2020-07-21T08:49:59Z</time>
      </trkpt>
      <trkpt lat="43.74705" lon="2.11335">
        <ele>283.73</ele>
        <time>2020-07-21T08:50:19Z</time>
      </trkpt>
      <trkpt lat="43.747" lon="2.11369">
        <ele>284.69</ele>
        <time>2020-07-21T08:50:40Z</time>
      </trkpt>
      <trkpt lat="43.74698" lon="2.11397">
        <ele>285.65</ele>
        <time>2020-07-21T08:50:57Z</time>
      </trkpt>
      <trkpt lat="43.74695" lon="2.11423">
        <ele>286.13</ele>
        <time>2020-07-21T08:51:13Z</time>
      </trkpt>
      <trkpt lat="43.74694" lon="2.11456">
        <ele>286.61</ele>
        <time>2020-07-21T08:51:33Z</time>
      </trkpt>
      <trkpt lat="43.74689" lon="2.11488">
        <ele>287.09</ele>
        <time>2020-07-21T08:51:53Z</time>
      </trkpt>
      <trkpt lat="43.74682" lon="2.1152">
        <ele>288.05</ele>
        <time>2020-07-21T08:52:13Z</time>
      </trkpt>
      <trkpt lat="43.74677" lon="2.11557">
        <ele>288.53</ele>
        <time>2020-07-21T08:52:35Z</time>
      </trkpt>
      <trkpt lat="43.74679" lon="2.11594">
        <ele>289.01</ele>
        <time>2020-07-21T08:52:57Z</time>
      </trkpt>
      <trkpt lat="43.74679" lon="2.11618">
        <ele>287.57</ele>
        <time>2020-07-21T08:53:13Z</time>
      </trkpt>
      <trkpt lat="43.74678" lon="2.11626">
        <ele>287.57</ele>
        <time>2020-07-21T08:53:19Z</time>
      </trkpt>
      <trkpt lat="43.74675" lon="2.11635">
        <ele>287.09</ele>
        <time>2020-07-21T08:53:26Z</time>
      </trkpt>
      <trkpt lat="43.74671" lon="2.1167">
        <ele>286.61</ele>
        <time>2020-07-21T08:53:46Z</time>
      </trkpt>
      <trkpt lat="43.74671" lon="2.11705">
        <ele>287.57</ele>
        <time>2020-07-21T08:54:07Z</time>
      </trkpt>
      <trkpt lat="43.74671" lon="2.11741">
        <ele>288.53</ele>
        <time>2020-07-21T08:54:28Z</time>
      </trkpt>
      <trkpt lat="43.74668" lon="2.11775">
        <ele>289.49</ele>
        <time>2020-07-21T08:54:48Z</time>
      </trkpt>
      <trkpt lat="43.74664" lon="2.11807">
        <ele>290.46</ele>
        <time>2020-07-21T08:55:08Z</time>
      </trkpt>
      <trkpt lat="43.74661" lon="2.11835">
        <ele>291.42</ele>
        <time>2020-07-21T08:55:25Z</time>
      </trkpt>
      <trkpt lat="43.74656" lon="2.11862">
        <ele>292.86</ele>
        <time>2020-07-21T08:55:45Z</time>
      </trkpt>
      <trkpt lat="43.74652" lon="2.11887">
        <ele>293.34</ele>
        <time>2020-07-21T08:56:01Z</time>
      </trkpt>
      <trkpt lat="43.74646" lon="2.1192">
        <ele>293.82</ele>
        <time>2020-07-21T08:56:21Z</time>
      </trkpt>
      <trkpt lat="43.74642" lon="2.11946">
        <ele>294.3</ele>
        <time>2020-07-21T08:56:38Z</time>
      </trkpt>
      <trkpt lat="43.74635" lon="2.11966">
        <ele>294.3</ele>
        <time>2020-07-21T08:56:55Z</time>
      </trkpt>
      <trkpt lat="43.74632" lon="2.11981">
        <ele>294.3</ele>
        <time>2020-07-21T08:57:07Z</time>
      </trkpt>
      <trkpt lat="43.74653" lon="2.11999">
        <ele>294.3</ele>
        <time>2020-07-21T08:57:26Z</time>
      </trkpt>
      <trkpt lat="43.74676" lon="2.12012">
        <ele>294.3</ele>
        <time>2020-07-21T08:57:46Z</time>
      </trkpt>
      <trkpt lat="43.74702" lon="2.12023">
        <ele>295.74</ele>
        <time>2020-07-21T08:58:08Z</time>
      </trkpt>
      <trkpt lat="43.74718" lon="2.12014">
        <ele>296.7</ele>
        <time>2020-07-21T08:58:24Z</time>
      </trkpt>
      <trkpt lat="43.74732" lon="2.11994">
        <ele>295.26</ele>
        <time>2020-07-21T08:58:40Z</time>
      </trkpt>
      <trkpt lat="43.7475" lon="2.11967">
        <ele>294.78</ele>
        <time>2020-07-21T08:59:02Z</time>
      </trkpt>
      <trkpt lat="43.74763" lon="2.11948">
        <ele>294.78</ele>
        <time>2020-07-21T08:59:20Z</time>
      </trkpt>
      <trkpt lat="43.74775" lon="2.11929">
        <ele>294.3</ele>
        <time>2020-07-21T08:59:40Z</time>
      </trkpt>
      <trkpt lat="43.7479" lon="2.11911">
        <ele>294.3</ele>
        <time>2020-07-21T09:00:00Z</time>
      </trkpt>
      <trkpt lat="43.74809" lon="2.1189">
        <ele>293.34</ele>
        <time>2020-07-21T09:00:19Z</time>
      </trkpt>
      <trkpt lat="43.74828" lon="2.11859">
        <ele>291.9</ele>
        <time>2020-07-21T09:00:41Z</time>
      </trkpt>
      <trkpt lat="43.74845" lon="2.11828">
        <ele>290.46</ele>
        <time>2020-07-21T09:01:02Z</time>
      </trkpt>
      <trkpt lat="43.74858" lon="2.11806">
        <ele>289.49</ele>
        <time>2020-07-21T09:01:19Z</time>
      </trkpt>
      <trkpt lat="43.74873" lon="2.1178">
        <ele>288.05</ele>
        <time>2020-07-21T09:01:38Z</time>
      </trkpt>
      <trkpt lat="43.74882" lon="2.11767">
        <ele>287.57</ele>
        <time>2020-07-21T09:01:49Z</time>
      </trkpt>
      <trkpt lat="43.74888" lon="2.11761">
        <ele>287.09</ele>
        <time>2020-07-21T09:01:55Z</time>
      </trkpt>
      <trkpt lat="43.74893" lon="2.11756">
        <ele>287.09</ele>
        <time>2020-07-21T09:02:04Z</time>
      </trkpt>
      <trkpt lat="43.74896" lon="2.11755">
        <ele>287.09</ele>
        <time>2020-07-21T09:02:07Z</time>
      </trkpt>
      <trkpt lat="43.74898" lon="2.11751">
        <ele>286.61</ele>
        <time>2020-07-21T09:02:11Z</time>
      </trkpt>
      <trkpt lat="43.74912" lon="2.11726">
        <ele>286.13</ele>
        <time>2020-07-21T09:02:32Z</time>
      </trkpt>
      <trkpt lat="43.74913" lon="2.11723">
        <ele>285.65</ele>
        <time>2020-07-21T09:02:45Z</time>
      </trkpt>
      <trkpt lat="43.74913" lon="2.11721">
        <ele>285.65</ele>
        <time>2020-07-21T09:02:59Z</time>
      </trkpt>
      <trkpt lat="43.74913" lon="2.11722">
        <ele>285.65</ele>
        <time>2020-07-21T09:03:04Z</time>
      </trkpt>
      <trkpt lat="43.74913" lon="2.11723">
        <ele>285.65</ele>
        <time>2020-07-21T09:03:15Z</time>
      </trkpt>
      <trkpt lat="43.74914" lon="2.11719">
        <ele>285.65</ele>
        <time>2020-07-21T09:03:20Z</time>
      </trkpt>
      <trkpt lat="43.74916" lon="2.11711">
        <ele>285.65</ele>
        <time>2020-07-21T09:03:26Z</time>
      </trkpt>
      <trkpt lat="43.74929" lon="2.11679">
        <ele>285.65</ele>
        <time>2020-07-21T09:03:48Z</time>
      </trkpt>
      <trkpt lat="43.74936" lon="2.11653">
        <ele>285.65</ele>
        <time>2020-07-21T09:04:05Z</time>
      </trkpt>
      <trkpt lat="43.74948" lon="2.11627">
        <ele>285.65</ele>
        <time>2020-07-21T09:04:23Z</time>
      </trkpt>
      <trkpt lat="43.74969" lon="2.11603">
        <ele>285.65</ele>
        <time>2020-07-21T09:04:44Z</time>
      </trkpt>
      <trkpt lat="43.74987" lon="2.11585">
        <ele>284.69</ele>
        <time>2020-07-21T09:05:00Z</time>
      </trkpt>
      <trkpt lat="43.75002" lon="2.11565">
        <ele>285.17</ele>
        <time>2020-07-21T09:05:17Z</time>
      </trkpt>
      <trkpt lat="43.7501" lon="2.11553">
        <ele>285.17</ele>
        <time>2020-07-21T09:05:27Z</time>
      </trkpt>
      <trkpt lat="43.75026" lon="2.11538">
        <ele>284.69</ele>
        <time>2020-07-21T09:05:43Z</time>
      </trkpt>
      <trkpt lat="43.75049" lon="2.11519">
        <ele>284.69</ele>
        <time>2020-07-21T09:06:02Z</time>
      </trkpt>
      <trkpt lat="43.7507" lon="2.11499">
        <ele>284.69</ele>
        <time>2020-07-21T09:06:22Z</time>
      </trkpt>
      <trkpt lat="43.75094" lon="2.11473">
        <ele>285.65</ele>
        <time>2020-07-21T09:06:47Z</time>
      </trkpt>
      <trkpt lat="43.75114" lon="2.11453">
        <ele>285.65</ele>
        <time>2020-07-21T09:07:04Z</time>
      </trkpt>
      <trkpt lat="43.75128" lon="2.11439">
        <ele>284.21</ele>
        <time>2020-07-21T09:07:17Z</time>
      </trkpt>
      <trkpt lat="43.75148" lon="2.11419">
        <ele>284.21</ele>
        <time>2020-07-21T09:07:35Z</time>
      </trkpt>
      <trkpt lat="43.75161" lon="2.11406">
        <ele>284.21</ele>
        <time>2020-07-21T09:07:52Z</time>
      </trkpt>
      <trkpt lat="43.75164" lon="2.11405">
        <ele>284.21</ele>
        <time>2020-07-21T09:07:56Z</time>
      </trkpt>
      <trkpt lat="43.75179" lon="2.11393">
        <ele>284.21</ele>
        <time>2020-07-21T09:08:10Z</time>
      </trkpt>
      <trkpt lat="43.75182" lon="2.11391">
        <ele>284.21</ele>
        <time>2020-07-21T09:08:13Z</time>
      </trkpt>
      <trkpt lat="43.75199" lon="2.11371">
        <ele>284.21</ele>
        <time>2020-07-21T09:08:30Z</time>
      </trkpt>
      <trkpt lat="43.75214" lon="2.11357">
        <ele>285.17</ele>
        <time>2020-07-21T09:08:48Z</time>
      </trkpt>
      <trkpt lat="43.7523" lon="2.11343">
        <ele>282.77</ele>
        <time>2020-07-21T09:09:04Z</time>
      </trkpt>
      <trkpt lat="43.75244" lon="2.11329">
        <ele>281.32</ele>
        <time>2020-07-21T09:09:18Z</time>
      </trkpt>
      <trkpt lat="43.75248" lon="2.11319">
        <ele>280.84</ele>
        <time>2020-07-21T09:09:25Z</time>
      </trkpt>
      <trkpt lat="43.75263" lon="2.11288">
        <ele>280.84</ele>
        <time>2020-07-21T09:09:43Z</time>
      </trkpt>
      <trkpt lat="43.75277" lon="2.11263">
        <ele>280.84</ele>
        <time>2020-07-21T09:10:00Z</time>
      </trkpt>
      <trkpt lat="43.7529" lon="2.11242">
        <ele>282.28</ele>
        <time>2020-07-21T09:10:17Z</time>
      </trkpt>
      <trkpt lat="43.75297" lon="2.11229">
        <ele>283.73</ele>
        <time>2020-07-21T09:10:31Z</time>
      </trkpt>
      <trkpt lat="43.75305" lon="2.11211">
        <ele>284.69</ele>
        <time>2020-07-21T09:10:47Z</time>
      </trkpt>
      <trkpt lat="43.75312" lon="2.11195">
        <ele>286.61</ele>
        <time>2020-07-21T09:11:02Z</time>
      </trkpt>
      <trkpt lat="43.75314" lon="2.11177">
        <ele>288.05</ele>
        <time>2020-07-21T09:11:17Z</time>
      </trkpt>
      <trkpt lat="43.75314" lon="2.11158">
        <ele>288.05</ele>
        <time>2020-07-21T09:11:32Z</time>
      </trkpt>
      <trkpt lat="43.75314" lon="2.11134">
        <ele>288.05</ele>
        <time>2020-07-21T09:11:49Z</time>
      </trkpt>
      <trkpt lat="43.75316" lon="2.11107">
        <ele>287.09</ele>
        <time>2020-07-21T09:12:07Z</time>
      </trkpt>
      <trkpt lat="43.75318" lon="2.11084">
        <ele>286.13</ele>
        <time>2020-07-21T09:12:19Z</time>
      </trkpt>
      <trkpt lat="43.75321" lon="2.11073">
        <ele>285.65</ele>
        <time>2020-07-21T09:12:27Z</time>
      </trkpt>
      <trkpt lat="43.75323" lon="2.11061">
        <ele>285.65</ele>
        <time>2020-07-21T09:12:35Z</time>
      </trkpt>
      <trkpt lat="43.75326" lon="2.11051">
        <ele>285.65</ele>
        <time>2020-07-21T09:12:43Z</time>
      </trkpt>
      <trkpt lat="43.75331" lon="2.11025">
        <ele>288.05</ele>
        <time>2020-07-21T09:13:02Z</time>
      </trkpt>
      <trkpt lat="43.75333" lon="2.11013">
        <ele>286.61</ele>
        <time>2020-07-21T09:13:10Z</time>
      </trkpt>
      <trkpt lat="43.75336" lon="2.1099">
        <ele>284.69</ele>
        <time>2020-07-21T09:13:26Z</time>
      </trkpt>
      <trkpt lat="43.75341" lon="2.1097">
        <ele>283.25</ele>
        <time>2020-07-21T09:13:42Z</time>
      </trkpt>
      <trkpt lat="43.75348" lon="2.10961">
        <ele>284.69</ele>
        <time>2020-07-21T09:13:52Z</time>
      </trkpt>
      <trkpt lat="43.75361" lon="2.10965">
        <ele>288.05</ele>
        <time>2020-07-21T09:14:07Z</time>
      </trkpt>
      <trkpt lat="43.75365" lon="2.10967">
        <ele>289.01</ele>
        <time>2020-07-21T09:14:11Z</time>
      </trkpt>
      <trkpt lat="43.75378" lon="2.10957">
        <ele>289.97</ele>
        <time>2020-07-21T09:14:28Z</time>
      </trkpt>
      <trkpt lat="43.75394" lon="2.1095">
        <ele>290.46</ele>
        <time>2020-07-21T09:14:45Z</time>
      </trkpt>
      <trkpt lat="43.75408" lon="2.10945">
        <ele>290.46</ele>
        <time>2020-07-21T09:15:00Z</time>
      </trkpt>
      <trkpt lat="43.75423" lon="2.10948">
        <ele>290.94</ele>
        <time>2020-07-21T09:15:13Z</time>
      </trkpt>
      <trkpt lat="43.75445" lon="2.10949">
        <ele>290.94</ele>
        <time>2020-07-21T09:15:31Z</time>
      </trkpt>
      <trkpt lat="43.75464" lon="2.10947">
        <ele>291.9</ele>
        <time>2020-07-21T09:15:49Z</time>
      </trkpt>
      <trkpt lat="43.75483" lon="2.10941">
        <ele>295.26</ele>
        <time>2020-07-21T09:16:09Z</time>
      </trkpt>
      <trkpt lat="43.75492" lon="2.10931">
        <ele>296.22</ele>
        <time>2020-07-21T09:16:23Z</time>
      </trkpt>
      <trkpt lat="43.75493" lon="2.10931">
        <ele>296.7</ele>
        <time>2020-07-21T09:16:37Z</time>
      </trkpt>
      <trkpt lat="43.75493" lon="2.1093">
        <ele>296.7</ele>
        <time>2020-07-21T09:17:07Z</time>
      </trkpt>
      <trkpt lat="43.75493" lon="2.1093">
        <ele>296.7</ele>
        <time>2020-07-21T09:17:31Z</time>
      </trkpt>
      <trkpt lat="43.75498" lon="2.10922">
        <ele>296.7</ele>
        <time>2020-07-21T09:17:42Z</time>
      </trkpt>
      <trkpt lat="43.75507" lon="2.10906">
        <ele>296.7</ele>
        <time>2020-07-21T09:18:01Z</time>
      </trkpt>
      <trkpt lat="43.75514" lon="2.10891">
        <ele>297.18</ele>
        <time>2020-07-21T09:18:17Z</time>
      </trkpt>
      <trkpt lat="43.75527" lon="2.10868">
        <ele>298.63</ele>
        <time>2020-07-21T09:18:34Z</time>
      </trkpt>
      <trkpt lat="43.75539" lon="2.10844">
        <ele>299.11</ele>
        <time>2020-07-21T09:18:53Z</time>
      </trkpt>
      <trkpt lat="43.75549" lon="2.10827">
        <ele>299.59</ele>
        <time>2020-07-21T09:19:09Z</time>
      </trkpt>
      <trkpt lat="43.75557" lon="2.10815">
        <ele>299.59</ele>
        <time>2020-07-21T09:19:21Z</time>
      </trkpt>
      <trkpt lat="43.75571" lon="2.10796">
        <ele>299.59</ele>
        <time>2020-07-21T09:19:37Z</time>
      </trkpt>
      <trkpt lat="43.75587" lon="2.10777">
        <ele>298.63</ele>
        <time>2020-07-21T09:19:56Z</time>
      </trkpt>
      <trkpt lat="43.75603" lon="2.10761">
        <ele>298.63</ele>
        <time>2020-07-21T09:20:14Z</time>
      </trkpt>
      <trkpt lat="43.75604" lon="2.10757">
        <ele>298.15</ele>
        <time>2020-07-21T09:20:17Z</time>
      </trkpt>
      <trkpt lat="43.75621" lon="2.10732">
        <ele>296.7</ele>
        <time>2020-07-21T09:20:37Z</time>
      </trkpt>
      <trkpt lat="43.75637" lon="2.10713">
        <ele>296.7</ele>
        <time>2020-07-21T09:20:54Z</time>
      </trkpt>
      <trkpt lat="43.75654" lon="2.107">
        <ele>296.7</ele>
        <time>2020-07-21T09:21:13Z</time>
      </trkpt>
      <trkpt lat="43.75659" lon="2.1069">
        <ele>296.7</ele>
        <time>2020-07-21T09:21:26Z</time>
      </trkpt>
      <trkpt lat="43.7566" lon="2.1067">
        <ele>296.22</ele>
        <time>2020-07-21T09:21:41Z</time>
      </trkpt>
      <trkpt lat="43.7566" lon="2.10656">
        <ele>296.22</ele>
        <time>2020-07-21T09:21:51Z</time>
      </trkpt>
      <trkpt lat="43.7567" lon="2.10628">
        <ele>294.78</ele>
        <time>2020-07-21T09:22:08Z</time>
      </trkpt>
      <trkpt lat="43.75682" lon="2.10603">
        <ele>294.78</ele>
        <time>2020-07-21T09:22:25Z</time>
      </trkpt>
      <trkpt lat="43.75693" lon="2.10584">
        <ele>292.86</ele>
        <time>2020-07-21T09:22:40Z</time>
      </trkpt>
      <trkpt lat="43.757" lon="2.10569">
        <ele>289.97</ele>
        <time>2020-07-21T09:22:55Z</time>
      </trkpt>
      <trkpt lat="43.75709" lon="2.1056">
        <ele>289.01</ele>
        <time>2020-07-21T09:23:07Z</time>
      </trkpt>
      <trkpt lat="43.7572" lon="2.10566">
        <ele>288.53</ele>
        <time>2020-07-21T09:23:20Z</time>
      </trkpt>
      <trkpt lat="43.75724" lon="2.10566">
        <ele>288.53</ele>
        <time>2020-07-21T09:23:24Z</time>
      </trkpt>
      <trkpt lat="43.75738" lon="2.10561">
        <ele>288.53</ele>
        <time>2020-07-21T09:23:40Z</time>
      </trkpt>
      <trkpt lat="43.75744" lon="2.10559">
        <ele>288.53</ele>
        <time>2020-07-21T09:23:45Z</time>
      </trkpt>
      <trkpt lat="43.75756" lon="2.10561">
        <ele>288.53</ele>
        <time>2020-07-21T09:23:55Z</time>
      </trkpt>
      <trkpt lat="43.75762" lon="2.1056">
        <ele>288.05</ele>
        <time>2020-07-21T09:24:00Z</time>
      </trkpt>
      <trkpt lat="43.75783" lon="2.1054">
        <ele>287.57</ele>
        <time>2020-07-21T09:24:20Z</time>
      </trkpt>
      <trkpt lat="43.758" lon="2.10526">
        <ele>286.61</ele>
        <time>2020-07-21T09:24:37Z</time>
      </trkpt>
      <trkpt lat="43.75813" lon="2.10515">
        <ele>285.65</ele>
        <time>2020-07-21T09:24:51Z</time>
      </trkpt>
      <trkpt lat="43.75825" lon="2.10505">
        <ele>284.21</ele>
        <time>2020-07-21T09:25:05Z</time>
      </trkpt>
      <trkpt lat="43.75836" lon="2.10498">
        <ele>283.25</ele>
        <time>2020-07-21T09:25:19Z</time>
      </trkpt>
      <trkpt lat="43.75853" lon="2.10492">
        <ele>281.32</ele>
        <time>2020-07-21T09:25:32Z</time>
      </trkpt>
      <trkpt lat="43.75865" lon="2.10481">
        <ele>279.88</ele>
        <time>2020-07-21T09:25:45Z</time>
      </trkpt>
      <trkpt lat="43.75881" lon="2.10472">
        <ele>278.44</ele>
        <time>2020-07-21T09:25:59Z</time>
      </trkpt>
      <trkpt lat="43.75892" lon="2.10464">
        <ele>277</ele>
        <time>2020-07-21T09:26:12Z</time>
      </trkpt>
      <trkpt lat="43.75907" lon="2.10451">
        <ele>274.59</ele>
        <time>2020-07-21T09:26:26Z</time>
      </trkpt>
      <trkpt lat="43.75925" lon="2.10441">
        <ele>273.15</ele>
        <time>2020-07-21T09:26:41Z</time>
      </trkpt>
      <trkpt lat="43.75933" lon="2.10434">
        <ele>272.67</ele>
        <time>2020-07-21T09:26:49Z</time>
      </trkpt>
      <trkpt lat="43.75945" lon="2.10417">
        <ele>270.75</ele>
        <time>2020-07-21T09:27:03Z</time>
      </trkpt>
      <trkpt lat="43.75962" lon="2.1041">
        <ele>269.31</ele>
        <time>2020-07-21T09:27:18Z</time>
      </trkpt>
      <trkpt lat="43.75963" lon="2.1041">
        <ele>268.83</ele>
        <time>2020-07-21T09:27:19Z</time>
      </trkpt>
      <trkpt lat="43.75981" lon="2.10398">
        <ele>266.42</ele>
        <time>2020-07-21T09:27:34Z</time>
      </trkpt>
      <trkpt lat="43.75995" lon="2.10382">
        <ele>264.02</ele>
        <time>2020-07-21T09:27:48Z</time>
      </trkpt>
      <trkpt lat="43.76006" lon="2.1037">
        <ele>261.62</ele>
        <time>2020-07-21T09:28:02Z</time>
      </trkpt>
      <trkpt lat="43.76019" lon="2.10368">
        <ele>260.17</ele>
        <time>2020-07-21T09:28:16Z</time>
      </trkpt>
      <trkpt lat="43.76022" lon="2.10368">
        <ele>259.69</ele>
        <time>2020-07-21T09:28:19Z</time>
      </trkpt>
      <trkpt lat="43.76037" lon="2.10357">
        <ele>257.77</ele>
        <time>2020-07-21T09:28:34Z</time>
      </trkpt>
      <trkpt lat="43.7605" lon="2.1035">
        <ele>256.33</ele>
        <time>2020-07-21T09:28:47Z</time>
      </trkpt>
      <trkpt lat="43.76062" lon="2.10341">
        <ele>254.41</ele>
        <time>2020-07-21T09:29:01Z</time>
      </trkpt>
      <trkpt lat="43.76066" lon="2.10337">
        <ele>253.44</ele>
        <time>2020-07-21T09:29:07Z</time>
      </trkpt>
      <trkpt lat="43.76071" lon="2.1033">
        <ele>252.96</ele>
        <time>2020-07-21T09:29:15Z</time>
      </trkpt>
      <trkpt lat="43.76078" lon="2.10305">
        <ele>252.48</ele>
        <time>2020-07-21T09:29:28Z</time>
      </trkpt>
      <trkpt lat="43.76075" lon="2.10292">
        <ele>252</ele>
        <time>2020-07-21T09:29:41Z</time>
      </trkpt>
      <trkpt lat="43.76067" lon="2.1028">
        <ele>250.08</ele>
        <time>2020-07-21T09:29:53Z</time>
      </trkpt>
      <trkpt lat="43.76063" lon="2.10274">
        <ele>249.12</ele>
        <time>2020-07-21T09:29:59Z</time>
      </trkpt>
      <trkpt lat="43.76057" lon="2.10261">
        <ele>247.68</ele>
        <time>2020-07-21T09:30:11Z</time>
      </trkpt>
      <trkpt lat="43.76054" lon="2.10238">
        <ele>244.79</ele>
        <time>2020-07-21T09:30:23Z</time>
      </trkpt>
      <trkpt lat="43.76052" lon="2.10219">
        <ele>242.87</ele>
        <time>2020-07-21T09:30:37Z</time>
      </trkpt>
      <trkpt lat="43.76053" lon="2.10212">
        <ele>242.39</ele>
        <time>2020-07-21T09:30:42Z</time>
      </trkpt>
      <trkpt lat="43.7606" lon="2.10185">
        <ele>240.95</ele>
        <time>2020-07-21T09:30:58Z</time>
      </trkpt>
      <trkpt lat="43.7606" lon="2.10165">
        <ele>239.02</ele>
        <time>2020-07-21T09:31:12Z</time>
      </trkpt>
      <trkpt lat="43.7606" lon="2.10156">
        <ele>238.54</ele>
        <time>2020-07-21T09:31:18Z</time>
      </trkpt>
      <trkpt lat="43.76061" lon="2.10151">
        <ele>238.06</ele>
        <time>2020-07-21T09:31:20Z</time>
      </trkpt>
      <trkpt lat="43.76069" lon="2.10123">
        <ele>236.14</ele>
        <time>2020-07-21T09:31:34Z</time>
      </trkpt>
      <trkpt lat="43.76073" lon="2.10108">
        <ele>234.7</ele>
        <time>2020-07-21T09:31:45Z</time>
      </trkpt>
      <trkpt lat="43.76081" lon="2.10085">
        <ele>233.26</ele>
        <time>2020-07-21T09:32:01Z</time>
      </trkpt>
      <trkpt lat="43.76099" lon="2.1007">
        <ele>232.78</ele>
        <time>2020-07-21T09:32:18Z</time>
      </trkpt>
      <trkpt lat="43.76105" lon="2.1005">
        <ele>232.3</ele>
        <time>2020-07-21T09:32:32Z</time>
      </trkpt>
      <trkpt lat="43.76121" lon="2.10034">
        <ele>232.3</ele>
        <time>2020-07-21T09:32:49Z</time>
      </trkpt>
      <trkpt lat="43.76128" lon="2.10022">
        <ele>229.89</ele>
        <time>2020-07-21T09:33:03Z</time>
      </trkpt>
      <trkpt lat="43.76122" lon="2.10011">
        <ele>229.41</ele>
        <time>2020-07-21T09:33:13Z</time>
      </trkpt>
      <trkpt lat="43.76121" lon="2.10009">
        <ele>228.93</ele>
        <time>2020-07-21T09:33:15Z</time>
      </trkpt>
      <trkpt lat="43.76117" lon="2.09977">
        <ele>228.93</ele>
        <time>2020-07-21T09:33:32Z</time>
      </trkpt>
      <trkpt lat="43.76114" lon="2.09949">
        <ele>228.93</ele>
        <time>2020-07-21T09:33:45Z</time>
      </trkpt>
      <trkpt lat="43.76112" lon="2.09941">
        <ele>228.93</ele>
        <time>2020-07-21T09:33:49Z</time>
      </trkpt>
      <trkpt lat="43.76108" lon="2.09937">
        <ele>228.93</ele>
        <time>2020-07-21T09:33:53Z</time>
      </trkpt>
      <trkpt lat="43.76088" lon="2.09931">
        <ele>230.37</ele>
        <time>2020-07-21T09:34:11Z</time>
      </trkpt>
      <trkpt lat="43.76066" lon="2.09931">
        <ele>231.33</ele>
        <time>2020-07-21T09:34:29Z</time>
      </trkpt>
      <trkpt lat="43.76051" lon="2.0993">
        <ele>232.3</ele>
        <time>2020-07-21T09:34:43Z</time>
      </trkpt>
      <trkpt lat="43.76041" lon="2.0993">
        <ele>233.74</ele>
        <time>2020-07-21T09:34:59Z</time>
      </trkpt>
      <trkpt lat="43.76029" lon="2.09928">
        <ele>234.7</ele>
        <time>2020-07-21T09:35:15Z</time>
      </trkpt>
      <trkpt lat="43.76016" lon="2.09927">
        <ele>235.18</ele>
        <time>2020-07-21T09:35:29Z</time>
      </trkpt>
      <trkpt lat="43.75992" lon="2.09919">
        <ele>237.1</ele>
        <time>2020-07-21T09:35:44Z</time>
      </trkpt>
      <trkpt lat="43.75983" lon="2.09919">
        <ele>237.58</ele>
        <time>2020-07-21T09:35:58Z</time>
      </trkpt>
      <trkpt lat="43.75979" lon="2.09918">
        <ele>237.1</ele>
        <time>2020-07-21T09:36:23Z</time>
      </trkpt>
      <trkpt lat="43.75976" lon="2.09915">
        <ele>238.06</ele>
        <time>2020-07-21T09:36:33Z</time>
      </trkpt>
      <trkpt lat="43.7596" lon="2.09899">
        <ele>239.51</ele>
        <time>2020-07-21T09:36:51Z</time>
      </trkpt>
      <trkpt lat="43.75946" lon="2.0988">
        <ele>241.43</ele>
        <time>2020-07-21T09:37:09Z</time>
      </trkpt>
      <trkpt lat="43.75933" lon="2.09866">
        <ele>242.87</ele>
        <time>2020-07-21T09:37:24Z</time>
      </trkpt>
      <trkpt lat="43.7592" lon="2.09854">
        <ele>244.31</ele>
        <time>2020-07-21T09:37:39Z</time>
      </trkpt>
      <trkpt lat="43.75908" lon="2.09843">
        <ele>245.75</ele>
        <time>2020-07-21T09:37:54Z</time>
      </trkpt>
      <trkpt lat="43.75897" lon="2.0983">
        <ele>247.68</ele>
        <time>2020-07-21T09:38:09Z</time>
      </trkpt>
      <trkpt lat="43.75884" lon="2.09816">
        <ele>248.64</ele>
        <time>2020-07-21T09:38:25Z</time>
      </trkpt>
      <trkpt lat="43.75872" lon="2.09803">
        <ele>251.04</ele>
        <time>2020-07-21T09:38:42Z</time>
      </trkpt>
      <trkpt lat="43.7586" lon="2.09792">
        <ele>253.44</ele>
        <time>2020-07-21T09:38:59Z</time>
      </trkpt>
      <trkpt lat="43.75847" lon="2.09777">
        <ele>255.37</ele>
        <time>2020-07-21T09:39:16Z</time>
      </trkpt>
      <trkpt lat="43.75839" lon="2.0977">
        <ele>256.33</ele>
        <time>2020-07-21T09:39:29Z</time>
      </trkpt>
      <trkpt lat="43.75828" lon="2.09767">
        <ele>257.77</ele>
        <time>2020-07-21T09:39:43Z</time>
      </trkpt>
      <trkpt lat="43.75814" lon="2.09767">
        <ele>259.69</ele>
        <time>2020-07-21T09:39:58Z</time>
      </trkpt>
      <trkpt lat="43.75802" lon="2.09769">
        <ele>259.69</ele>
        <time>2020-07-21T09:40:16Z</time>
      </trkpt>
      <trkpt lat="43.75797" lon="2.09768">
        <ele>259.69</ele>
        <time>2020-07-21T09:40:36Z</time>
      </trkpt>
      <trkpt lat="43.75796" lon="2.09775">
        <ele>259.69</ele>
        <time>2020-07-21T09:40:54Z</time>
      </trkpt>
      <trkpt lat="43.75799" lon="2.0978">
        <ele>258.25</ele>
        <time>2020-07-21T09:41:02Z</time>
      </trkpt>
      <trkpt lat="43.75802" lon="2.09786">
        <ele>256.81</ele>
        <time>2020-07-21T09:41:18Z</time>
      </trkpt>
      <trkpt lat="43.75804" lon="2.09787">
        <ele>256.81</ele>
        <time>2020-07-21T09:41:37Z</time>
      </trkpt>
      <trkpt lat="43.75803" lon="2.09787">
        <ele>256.81</ele>
        <time>2020-07-21T09:42:04Z</time>
      </trkpt>
      <trkpt lat="43.75804" lon="2.09791">
        <ele>256.33</ele>
        <time>2020-07-21T09:42:39Z</time>
      </trkpt>
      <trkpt lat="43.75804" lon="2.09788">
        <ele>256.33</ele>
        <time>2020-07-21T09:42:51Z</time>
      </trkpt>
      <trkpt lat="43.75803" lon="2.09784">
        <ele>257.29</ele>
        <time>2020-07-21T09:43:08Z</time>
      </trkpt>
      <trkpt lat="43.75803" lon="2.09783">
        <ele>257.77</ele>
        <time>2020-07-21T09:43:18Z</time>
      </trkpt>
      <trkpt lat="43.75804" lon="2.09785">
        <ele>257.29</ele>
        <time>2020-07-21T09:43:34Z</time>
      </trkpt>
      <trkpt lat="43.75802" lon="2.09782">
        <ele>257.29</ele>
        <time>2020-07-21T09:43:50Z</time>
      </trkpt>
      <trkpt lat="43.75799" lon="2.09776">
        <ele>258.73</ele>
        <time>2020-07-21T09:43:59Z</time>
      </trkpt>
      <trkpt lat="43.75795" lon="2.09769">
        <ele>259.69</ele>
        <time>2020-07-21T09:44:11Z</time>
      </trkpt>
      <trkpt lat="43.75787" lon="2.09773">
        <ele>259.69</ele>
        <time>2020-07-21T09:44:28Z</time>
      </trkpt>
      <trkpt lat="43.75782" lon="2.09774">
        <ele>260.17</ele>
        <time>2020-07-21T09:44:40Z</time>
      </trkpt>
      <trkpt lat="43.75772" lon="2.09777">
        <ele>260.65</ele>
        <time>2020-07-21T09:44:56Z</time>
      </trkpt>
      <trkpt lat="43.75767" lon="2.0978">
        <ele>261.14</ele>
        <time>2020-07-21T09:45:07Z</time>
      </trkpt>
      <trkpt lat="43.75766" lon="2.09781">
        <ele>261.62</ele>
        <time>2020-07-21T09:45:09Z</time>
      </trkpt>
      <trkpt lat="43.75746" lon="2.09788">
        <ele>262.58</ele>
        <time>2020-07-21T09:45:30Z</time>
      </trkpt>
      <trkpt lat="43.75725" lon="2.09798">
        <ele>263.54</ele>
        <time>2020-07-21T09:45:50Z</time>
      </trkpt>
      <trkpt lat="43.75703" lon="2.09805">
        <ele>265.46</ele>
        <time>2020-07-21T09:46:11Z</time>
      </trkpt>
      <trkpt lat="43.75689" lon="2.0981">
        <ele>266.42</ele>
        <time>2020-07-21T09:46:29Z</time>
      </trkpt>
      <trkpt lat="43.75672" lon="2.09815">
        <ele>267.38</ele>
        <time>2020-07-21T09:46:47Z</time>
      </trkpt>
      <trkpt lat="43.75656" lon="2.09819">
        <ele>267.86</ele>
        <time>2020-07-21T09:47:04Z</time>
      </trkpt>
      <trkpt lat="43.75648" lon="2.09821">
        <ele>268.83</ele>
        <time>2020-07-21T09:47:15Z</time>
      </trkpt>
      <trkpt lat="43.75633" lon="2.09816">
        <ele>271.23</ele>
        <time>2020-07-21T09:47:33Z</time>
      </trkpt>
      <trkpt lat="43.75625" lon="2.09806">
        <ele>272.67</ele>
        <time>2020-07-21T09:47:48Z</time>
      </trkpt>
      <trkpt lat="43.75625" lon="2.09794">
        <ele>274.11</ele>
        <time>2020-07-21T09:48:03Z</time>
      </trkpt>
      <trkpt lat="43.75622" lon="2.09773">
        <ele>275.56</ele>
        <time>2020-07-21T09:48:19Z</time>
      </trkpt>
      <trkpt lat="43.75617" lon="2.09755">
        <ele>277</ele>
        <time>2020-07-21T09:48:33Z</time>
      </trkpt>
      <trkpt lat="43.75605" lon="2.09743">
        <ele>278.92</ele>
        <time>2020-07-21T09:48:51Z</time>
      </trkpt>
      <trkpt lat="43.75591" lon="2.09747">
        <ele>280.36</ele>
        <time>2020-07-21T09:49:06Z</time>
      </trkpt>
      <trkpt lat="43.75589" lon="2.09749">
        <ele>280.84</ele>
        <time>2020-07-21T09:49:08Z</time>
      </trkpt>
      <trkpt lat="43.75578" lon="2.0976">
        <ele>281.8</ele>
        <time>2020-07-21T09:49:20Z</time>
      </trkpt>
      <trkpt lat="43.75584" lon="2.09769">
        <ele>282.28</ele>
        <time>2020-07-21T09:49:32Z</time>
      </trkpt>
      <trkpt lat="43.75576" lon="2.09761">
        <ele>282.28</ele>
        <time>2020-07-21T09:49:47Z</time>
      </trkpt>
      <trkpt lat="43.75575" lon="2.09762">
        <ele>282.28</ele>
        <time>2020-07-21T09:49:48Z</time>
      </trkpt>
      <trkpt lat="43.7557" lon="2.0976">
        <ele>282.28</ele>
        <time>2020-07-21T09:49:52Z</time>
      </trkpt>
      <trkpt lat="43.75543" lon="2.09742">
        <ele>282.28</ele>
        <time>2020-07-21T09:50:16Z</time>
      </trkpt>
      <trkpt lat="43.75531" lon="2.09718">
        <ele>282.28</ele>
        <time>2020-07-21T09:50:34Z</time>
      </trkpt>
      <trkpt lat="43.75521" lon="2.09691">
        <ele>282.28</ele>
        <time>2020-07-21T09:50:53Z</time>
      </trkpt>
      <trkpt lat="43.75514" lon="2.09669">
        <ele>282.28</ele>
        <time>2020-07-21T09:51:07Z</time>
      </trkpt>
      <trkpt lat="43.75508" lon="2.09636">
        <ele>281.8</ele>
        <time>2020-07-21T09:51:26Z</time>
      </trkpt>
      <trkpt lat="43.75516" lon="2.09604">
        <ele>280.36</ele>
        <time>2020-07-21T09:51:46Z</time>
      </trkpt>
      <trkpt lat="43.75526" lon="2.09569">
        <ele>279.4</ele>
        <time>2020-07-21T09:52:07Z</time>
      </trkpt>
      <trkpt lat="43.75536" lon="2.09538">
        <ele>278.44</ele>
        <time>2020-07-21T09:52:25Z</time>
      </trkpt>
      <trkpt lat="43.75529" lon="2.09535">
        <ele>278.44</ele>
        <time>2020-07-21T09:52:37Z</time>
      </trkpt>
      <trkpt lat="43.75528" lon="2.09537">
        <ele>279.4</ele>
        <time>2020-07-21T09:52:39Z</time>
      </trkpt>
      <trkpt lat="43.75519" lon="2.0956">
        <ele>281.32</ele>
        <time>2020-07-21T09:52:58Z</time>
      </trkpt>
      <trkpt lat="43.75517" lon="2.09565">
        <ele>281.32</ele>
        <time>2020-07-21T09:53:02Z</time>
      </trkpt>
      <trkpt lat="43.75513" lon="2.09571">
        <ele>282.28</ele>
        <time>2020-07-21T09:53:07Z</time>
      </trkpt>
      <trkpt lat="43.75497" lon="2.09593">
        <ele>284.21</ele>
        <time>2020-07-21T09:53:27Z</time>
      </trkpt>
      <trkpt lat="43.75484" lon="2.096">
        <ele>285.65</ele>
        <time>2020-07-21T09:53:42Z</time>
      </trkpt>
      <trkpt lat="43.75468" lon="2.09601">
        <ele>287.09</ele>
        <time>2020-07-21T09:53:58Z</time>
      </trkpt>
      <trkpt lat="43.75465" lon="2.09594">
        <ele>287.57</ele>
        <time>2020-07-21T09:54:05Z</time>
      </trkpt>
      <trkpt lat="43.75473" lon="2.09584">
        <ele>288.05</ele>
        <time>2020-07-21T09:54:16Z</time>
      </trkpt>
      <trkpt lat="43.75489" lon="2.09554">
        <ele>288.05</ele>
        <time>2020-07-21T09:54:37Z</time>
      </trkpt>
      <trkpt lat="43.75492" lon="2.09545">
        <ele>286.61</ele>
        <time>2020-07-21T09:54:43Z</time>
      </trkpt>
      <trkpt lat="43.75498" lon="2.09515">
        <ele>286.13</ele>
        <time>2020-07-21T09:55:01Z</time>
      </trkpt>
      <trkpt lat="43.7551" lon="2.09485">
        <ele>286.13</ele>
        <time>2020-07-21T09:55:23Z</time>
      </trkpt>
      <trkpt lat="43.75512" lon="2.09473">
        <ele>285.65</ele>
        <time>2020-07-21T09:55:38Z</time>
      </trkpt>
      <trkpt lat="43.75513" lon="2.09473">
        <ele>285.65</ele>
        <time>2020-07-21T09:55:57Z</time>
      </trkpt>
      <trkpt lat="43.75513" lon="2.09473">
        <ele>285.65</ele>
        <time>2020-07-21T09:56:18Z</time>
      </trkpt>
      <trkpt lat="43.75513" lon="2.09472">
        <ele>285.65</ele>
        <time>2020-07-21T09:56:36Z</time>
      </trkpt>
      <trkpt lat="43.75514" lon="2.09465">
        <ele>285.65</ele>
        <time>2020-07-21T09:56:41Z</time>
      </trkpt>
      <trkpt lat="43.75518" lon="2.09455">
        <ele>285.17</ele>
        <time>2020-07-21T09:56:48Z</time>
      </trkpt>
      <trkpt lat="43.75518" lon="2.09448">
        <ele>284.21</ele>
        <time>2020-07-21T09:56:53Z</time>
      </trkpt>
      <trkpt lat="43.75525" lon="2.09447">
        <ele>283.25</ele>
        <time>2020-07-21T09:57:00Z</time>
      </trkpt>
      <trkpt lat="43.75532" lon="2.09463">
        <ele>282.28</ele>
        <time>2020-07-21T09:57:15Z</time>
      </trkpt>
      <trkpt lat="43.75534" lon="2.09489">
        <ele>280.84</ele>
        <time>2020-07-21T09:57:32Z</time>
      </trkpt>
      <trkpt lat="43.75538" lon="2.09501">
        <ele>279.88</ele>
        <time>2020-07-21T09:57:46Z</time>
      </trkpt>
      <trkpt lat="43.75539" lon="2.09502">
        <ele>278.92</ele>
        <time>2020-07-21T09:57:47Z</time>
      </trkpt>
      <trkpt lat="43.75546" lon="2.09501">
        <ele>276.04</ele>
        <time>2020-07-21T09:58:01Z</time>
      </trkpt>
      <trkpt lat="43.75555" lon="2.09505">
        <ele>274.11</ele>
        <time>2020-07-21T09:58:12Z</time>
      </trkpt>
      <trkpt lat="43.75557" lon="2.09504">
        <ele>274.11</ele>
        <time>2020-07-21T09:58:13Z</time>
      </trkpt>
      <trkpt lat="43.75573" lon="2.09491">
        <ele>271.23</ele>
        <time>2020-07-21T09:58:29Z</time>
      </trkpt>
      <trkpt lat="43.75581" lon="2.09478">
        <ele>269.79</ele>
        <time>2020-07-21T09:58:41Z</time>
      </trkpt>
      <trkpt lat="43.75596" lon="2.09454">
        <ele>266.9</ele>
        <time>2020-07-21T09:58:58Z</time>
      </trkpt>
      <trkpt lat="43.75609" lon="2.09431">
        <ele>264.5</ele>
        <time>2020-07-21T09:59:16Z</time>
      </trkpt>
      <trkpt lat="43.75625" lon="2.09414">
        <ele>263.54</ele>
        <time>2020-07-21T09:59:32Z</time>
      </trkpt>
      <trkpt lat="43.75631" lon="2.09408">
        <ele>263.06</ele>
        <time>2020-07-21T09:59:40Z</time>
      </trkpt>
      <trkpt lat="43.75653" lon="2.09387">
        <ele>261.14</ele>
        <time>2020-07-21T10:00:00Z</time>
      </trkpt>
      <trkpt lat="43.75669" lon="2.09375">
        <ele>259.21</ele>
        <time>2020-07-21T10:00:16Z</time>
      </trkpt>
      <trkpt lat="43.75679" lon="2.09363">
        <ele>257.77</ele>
        <time>2020-07-21T10:00:31Z</time>
      </trkpt>
      <trkpt lat="43.75682" lon="2.09358">
        <ele>257.29</ele>
        <time>2020-07-21T10:00:36Z</time>
      </trkpt>
      <trkpt lat="43.75691" lon="2.09348">
        <ele>256.33</ele>
        <time>2020-07-21T10:00:48Z</time>
      </trkpt>
      <trkpt lat="43.75709" lon="2.09315">
        <ele>255.37</ele>
        <time>2020-07-21T10:01:08Z</time>
      </trkpt>
      <trkpt lat="43.75721" lon="2.09292">
        <ele>253.93</ele>
        <time>2020-07-21T10:01:25Z</time>
      </trkpt>
      <trkpt lat="43.75738" lon="2.09269">
        <ele>252.48</ele>
        <time>2020-07-21T10:01:42Z</time>
      </trkpt>
      <trkpt lat="43.75756" lon="2.09252">
        <ele>250.08</ele>
        <time>2020-07-21T10:02:00Z</time>
      </trkpt>
      <trkpt lat="43.75773" lon="2.09241">
        <ele>248.64</ele>
        <time>2020-07-21T10:02:17Z</time>
      </trkpt>
      <trkpt lat="43.7577" lon="2.09236">
        <ele>248.16</ele>
        <time>2020-07-21T10:02:24Z</time>
      </trkpt>
      <trkpt lat="43.75762" lon="2.09228">
        <ele>246.72</ele>
        <time>2020-07-21T10:02:42Z</time>
      </trkpt>
      <trkpt lat="43.75758" lon="2.0922">
        <ele>244.79</ele>
        <time>2020-07-21T10:02:56Z</time>
      </trkpt>
      <trkpt lat="43.75749" lon="2.0922">
        <ele>243.83</ele>
        <time>2020-07-21T10:03:09Z</time>
      </trkpt>
      <trkpt lat="43.75744" lon="2.09227">
        <ele>243.83</ele>
        <time>2020-07-21T10:03:22Z</time>
      </trkpt>
      <trkpt lat="43.75741" lon="2.0923">
        <ele>243.83</ele>
        <time>2020-07-21T10:03:35Z</time>
      </trkpt>
      <trkpt lat="43.7574" lon="2.09229">
        <ele>243.83</ele>
        <time>2020-07-21T10:03:56Z</time>
      </trkpt>
      <trkpt lat="43.75739" lon="2.09227">
        <ele>243.83</ele>
        <time>2020-07-21T10:04:12Z</time>
      </trkpt>
      <trkpt lat="43.75738" lon="2.09227">
        <ele>243.83</ele>
        <time>2020-07-21T10:04:35Z</time>
      </trkpt>
      <trkpt lat="43.7574" lon="2.09229">
        <ele>243.83</ele>
        <time>2020-07-21T10:04:48Z</time>
      </trkpt>
      <trkpt lat="43.7574" lon="2.0923">
        <ele>243.83</ele>
        <time>2020-07-21T10:05:06Z</time>
      </trkpt>
      <trkpt lat="43.75739" lon="2.09227">
        <ele>243.83</ele>
        <time>2020-07-21T10:05:24Z</time>
      </trkpt>
      <trkpt lat="43.7574" lon="2.09223">
        <ele>243.83</ele>
        <time>2020-07-21T10:05:35Z</time>
      </trkpt>
      <trkpt lat="43.75742" lon="2.09221">
        <ele>243.35</ele>
        <time>2020-07-21T10:05:43Z</time>
      </trkpt>
      <trkpt lat="43.75756" lon="2.09221">
        <ele>246.23</ele>
        <time>2020-07-21T10:05:58Z</time>
      </trkpt>
      <trkpt lat="43.75764" lon="2.09223">
        <ele>247.2</ele>
        <time>2020-07-21T10:06:13Z</time>
      </trkpt>
      <trkpt lat="43.7577" lon="2.09225">
        <ele>248.64</ele>
        <time>2020-07-21T10:06:24Z</time>
      </trkpt>
      <trkpt lat="43.75788" lon="2.09231">
        <ele>249.12</ele>
        <time>2020-07-21T10:06:40Z</time>
      </trkpt>
      <trkpt lat="43.75805" lon="2.09215">
        <ele>249.12</ele>
        <time>2020-07-21T10:06:58Z</time>
      </trkpt>
      <trkpt lat="43.75808" lon="2.09209">
        <ele>248.16</ele>
        <time>2020-07-21T10:07:03Z</time>
      </trkpt>
      <trkpt lat="43.75812" lon="2.09197">
        <ele>248.16</ele>
        <time>2020-07-21T10:07:17Z</time>
      </trkpt>
      <trkpt lat="43.75814" lon="2.09198">
        <ele>248.16</ele>
        <time>2020-07-21T10:07:36Z</time>
      </trkpt>
      <trkpt lat="43.75815" lon="2.09197">
        <ele>247.68</ele>
        <time>2020-07-21T10:08:05Z</time>
      </trkpt>
      <trkpt lat="43.75817" lon="2.09196">
        <ele>247.68</ele>
        <time>2020-07-21T10:08:26Z</time>
      </trkpt>
      <trkpt lat="43.75818" lon="2.09196">
        <ele>247.68</ele>
        <time>2020-07-21T10:08:50Z</time>
      </trkpt>
      <trkpt lat="43.75818" lon="2.09196">
        <ele>247.68</ele>
        <time>2020-07-21T10:09:12Z</time>
      </trkpt>
      <trkpt lat="43.75815" lon="2.09197">
        <ele>247.68</ele>
        <time>2020-07-21T10:09:39Z</time>
      </trkpt>
      <trkpt lat="43.75815" lon="2.09194">
        <ele>247.2</ele>
        <time>2020-07-21T10:10:03Z</time>
      </trkpt>
      <trkpt lat="43.75815" lon="2.09197">
        <ele>247.2</ele>
        <time>2020-07-21T10:10:24Z</time>
      </trkpt>
      <trkpt lat="43.75814" lon="2.09199">
        <ele>247.2</ele>
        <time>2020-07-21T10:10:41Z</time>
      </trkpt>
      <trkpt lat="43.75814" lon="2.09199">
        <ele>247.2</ele>
        <time>2020-07-21T10:10:50Z</time>
      </trkpt>
      <trkpt lat="43.75822" lon="2.09189">
        <ele>246.23</ele>
        <time>2020-07-21T10:11:01Z</time>
      </trkpt>
      <trkpt lat="43.75833" lon="2.09162">
        <ele>243.83</ele>
        <time>2020-07-21T10:11:19Z</time>
      </trkpt>
      <trkpt lat="43.75847" lon="2.09133">
        <ele>242.39</ele>
        <time>2020-07-21T10:11:38Z</time>
      </trkpt>
      <trkpt lat="43.75858" lon="2.09109">
        <ele>240.47</ele>
        <time>2020-07-21T10:11:54Z</time>
      </trkpt>
      <trkpt lat="43.7587" lon="2.09085">
        <ele>239.02</ele>
        <time>2020-07-21T10:12:10Z</time>
      </trkpt>
      <trkpt lat="43.75878" lon="2.09068">
        <ele>238.06</ele>
        <time>2020-07-21T10:12:25Z</time>
      </trkpt>
      <trkpt lat="43.75888" lon="2.09042">
        <ele>235.66</ele>
        <time>2020-07-21T10:12:42Z</time>
      </trkpt>
      <trkpt lat="43.75898" lon="2.09022">
        <ele>234.22</ele>
        <time>2020-07-21T10:12:56Z</time>
      </trkpt>
      <trkpt lat="43.75908" lon="2.08996">
        <ele>232.3</ele>
        <time>2020-07-21T10:13:12Z</time>
      </trkpt>
      <trkpt lat="43.75916" lon="2.08977">
        <ele>230.85</ele>
        <time>2020-07-21T10:13:26Z</time>
      </trkpt>
      <trkpt lat="43.75922" lon="2.08953">
        <ele>228.93</ele>
        <time>2020-07-21T10:13:42Z</time>
      </trkpt>
      <trkpt lat="43.75931" lon="2.08928">
        <ele>227.49</ele>
        <time>2020-07-21T10:13:57Z</time>
      </trkpt>
      <trkpt lat="43.75938" lon="2.08898">
        <ele>226.05</ele>
        <time>2020-07-21T10:14:14Z</time>
      </trkpt>
      <trkpt lat="43.75945" lon="2.08873">
        <ele>223.64</ele>
        <time>2020-07-21T10:14:31Z</time>
      </trkpt>
      <trkpt lat="43.7595" lon="2.08845">
        <ele>221.72</ele>
        <time>2020-07-21T10:14:46Z</time>
      </trkpt>
      <trkpt lat="43.75955" lon="2.08814">
        <ele>219.32</ele>
        <time>2020-07-21T10:15:04Z</time>
      </trkpt>
      <trkpt lat="43.75959" lon="2.08779">
        <ele>216.91</ele>
        <time>2020-07-21T10:15:24Z</time>
      </trkpt>
      <trkpt lat="43.75963" lon="2.08753">
        <ele>214.99</ele>
        <time>2020-07-21T10:15:40Z</time>
      </trkpt>
      <trkpt lat="43.7597" lon="2.08725">
        <ele>213.07</ele>
        <time>2020-07-21T10:15:57Z</time>
      </trkpt>
      <trkpt lat="43.75975" lon="2.08696">
        <ele>212.11</ele>
        <time>2020-07-21T10:16:16Z</time>
      </trkpt>
      <trkpt lat="43.75981" lon="2.0866">
        <ele>211.15</ele>
        <time>2020-07-21T10:16:35Z</time>
      </trkpt>
      <trkpt lat="43.75992" lon="2.08624">
        <ele>210.19</ele>
        <time>2020-07-21T10:16:56Z</time>
      </trkpt>
      <trkpt lat="43.76005" lon="2.08591">
        <ele>209.22</ele>
        <time>2020-07-21T10:17:16Z</time>
      </trkpt>
      <trkpt lat="43.76018" lon="2.08561">
        <ele>208.74</ele>
        <time>2020-07-21T10:17:35Z</time>
      </trkpt>
      <trkpt lat="43.76036" lon="2.08531">
        <ele>207.3</ele>
        <time>2020-07-21T10:17:57Z</time>
      </trkpt>
      <trkpt lat="43.7603" lon="2.08513">
        <ele>205.38</ele>
        <time>2020-07-21T10:18:12Z</time>
      </trkpt>
      <trkpt lat="43.76018" lon="2.08493">
        <ele>202.01</ele>
        <time>2020-07-21T10:18:28Z</time>
      </trkpt>
      <trkpt lat="43.76017" lon="2.08493">
        <ele>202.01</ele>
        <time>2020-07-21T10:18:29Z</time>
      </trkpt>
      <trkpt lat="43.76005" lon="2.08487">
        <ele>199.61</ele>
        <time>2020-07-21T10:18:42Z</time>
      </trkpt>
      <trkpt lat="43.76002" lon="2.08486">
        <ele>199.13</ele>
        <time>2020-07-21T10:18:45Z</time>
      </trkpt>
      <trkpt lat="43.75986" lon="2.08468">
        <ele>195.28</ele>
        <time>2020-07-21T10:19:01Z</time>
      </trkpt>
      <trkpt lat="43.75986" lon="2.08467">
        <ele>195.28</ele>
        <time>2020-07-21T10:19:02Z</time>
      </trkpt>
      <trkpt lat="43.75969" lon="2.0844">
        <ele>191.92</ele>
        <time>2020-07-21T10:19:22Z</time>
      </trkpt>
      <trkpt lat="43.75957" lon="2.08417">
        <ele>190.96</ele>
        <time>2020-07-21T10:19:39Z</time>
      </trkpt>
      <trkpt lat="43.75945" lon="2.08397">
        <ele>190.96</ele>
        <time>2020-07-21T10:19:59Z</time>
      </trkpt>
      <trkpt lat="43.75941" lon="2.0839">
        <ele>190.96</ele>
        <time>2020-07-21T10:20:12Z</time>
      </trkpt>
      <trkpt lat="43.75931" lon="2.08377">
        <ele>190.48</ele>
        <time>2020-07-21T10:20:26Z</time>
      </trkpt>
      <trkpt lat="43.75934" lon="2.08376">
        <ele>190</ele>
        <time>2020-07-21T10:20:37Z</time>
      </trkpt>
      <trkpt lat="43.75945" lon="2.08386">
        <ele>189.04</ele>
        <time>2020-07-21T10:20:54Z</time>
      </trkpt>
      <trkpt lat="43.75947" lon="2.08387">
        <ele>188.56</ele>
        <time>2020-07-21T10:21:14Z</time>
      </trkpt>
      <trkpt lat="43.75948" lon="2.08387">
        <ele>188.56</ele>
        <time>2020-07-21T10:21:36Z</time>
      </trkpt>
      <trkpt lat="43.75947" lon="2.08387">
        <ele>188.56</ele>
        <time>2020-07-21T10:22:05Z</time>
      </trkpt>
      <trkpt lat="43.75949" lon="2.0839">
        <ele>188.56</ele>
        <time>2020-07-21T10:22:33Z</time>
      </trkpt>
      <trkpt lat="43.75949" lon="2.08389">
        <ele>188.08</ele>
        <time>2020-07-21T10:22:56Z</time>
      </trkpt>
      <trkpt lat="43.75948" lon="2.08386">
        <ele>188.08</ele>
        <time>2020-07-21T10:23:17Z</time>
      </trkpt>
      <trkpt lat="43.75948" lon="2.08387">
        <ele>188.08</ele>
        <time>2020-07-21T10:23:44Z</time>
      </trkpt>
      <trkpt lat="43.75946" lon="2.08387">
        <ele>187.59</ele>
        <time>2020-07-21T10:24:09Z</time>
      </trkpt>
      <trkpt lat="43.75947" lon="2.08389">
        <ele>187.59</ele>
        <time>2020-07-21T10:24:39Z</time>
      </trkpt>
      <trkpt lat="43.75947" lon="2.08388">
        <ele>188.56</ele>
        <time>2020-07-21T10:25:10Z</time>
      </trkpt>
      <trkpt lat="43.75947" lon="2.08386">
        <ele>188.56</ele>
        <time>2020-07-21T10:25:35Z</time>
      </trkpt>
      <trkpt lat="43.75949" lon="2.08389">
        <ele>188.08</ele>
        <time>2020-07-21T10:25:51Z</time>
      </trkpt>
      <trkpt lat="43.75953" lon="2.08391">
        <ele>188.08</ele>
        <time>2020-07-21T10:26:05Z</time>
      </trkpt>
      <trkpt lat="43.75955" lon="2.08394">
        <ele>188.08</ele>
        <time>2020-07-21T10:26:19Z</time>
      </trkpt>
      <trkpt lat="43.75954" lon="2.08393">
        <ele>188.08</ele>
        <time>2020-07-21T10:26:21Z</time>
      </trkpt>
      <trkpt lat="43.7594" lon="2.08381">
        <ele>188.08</ele>
        <time>2020-07-21T10:26:40Z</time>
      </trkpt>
      <trkpt lat="43.75931" lon="2.08372">
        <ele>188.56</ele>
        <time>2020-07-21T10:26:57Z</time>
      </trkpt>
      <trkpt lat="43.7593" lon="2.08373">
        <ele>188.56</ele>
        <time>2020-07-21T10:27:13Z</time>
      </trkpt>
      <trkpt lat="43.75928" lon="2.0837">
        <ele>188.08</ele>
        <time>2020-07-21T10:27:33Z</time>
      </trkpt>
      <trkpt lat="43.75918" lon="2.08364">
        <ele>189.04</ele>
        <time>2020-07-21T10:27:48Z</time>
      </trkpt>
      <trkpt lat="43.75908" lon="2.08349">
        <ele>190</ele>
        <time>2020-07-21T10:28:05Z</time>
      </trkpt>
      <trkpt lat="43.7589" lon="2.08334">
        <ele>190.96</ele>
        <time>2020-07-21T10:28:23Z</time>
      </trkpt>
      <trkpt lat="43.75883" lon="2.08328">
        <ele>191.92</ele>
        <time>2020-07-21T10:28:31Z</time>
      </trkpt>
      <trkpt lat="43.75874" lon="2.08307">
        <ele>193.84</ele>
        <time>2020-07-21T10:28:49Z</time>
      </trkpt>
      <trkpt lat="43.75873" lon="2.08286">
        <ele>195.28</ele>
        <time>2020-07-21T10:29:07Z</time>
      </trkpt>
      <trkpt lat="43.75874" lon="2.08263">
        <ele>196.73</ele>
        <time>2020-07-21T10:29:25Z</time>
      </trkpt>
      <trkpt lat="43.75874" lon="2.08239">
        <ele>199.13</ele>
        <time>2020-07-21T10:29:44Z</time>
      </trkpt>
      <trkpt lat="43.75867" lon="2.08211">
        <ele>202.01</ele>
        <time>2020-07-21T10:30:05Z</time>
      </trkpt>
      <trkpt lat="43.75857" lon="2.08192">
        <ele>204.42</ele>
        <time>2020-07-21T10:30:25Z</time>
      </trkpt>
      <trkpt lat="43.75856" lon="2.0819">
        <ele>204.9</ele>
        <time>2020-07-21T10:30:27Z</time>
      </trkpt>
      <trkpt lat="43.7584" lon="2.08172">
        <ele>206.34</ele>
        <time>2020-07-21T10:30:46Z</time>
      </trkpt>
      <trkpt lat="43.75821" lon="2.08157">
        <ele>206.82</ele>
        <time>2020-07-21T10:31:07Z</time>
      </trkpt>
      <trkpt lat="43.75818" lon="2.08149">
        <ele>206.82</ele>
        <time>2020-07-21T10:31:12Z</time>
      </trkpt>
      <trkpt lat="43.75818" lon="2.08138">
        <ele>206.82</ele>
        <time>2020-07-21T10:31:29Z</time>
      </trkpt>
      <trkpt lat="43.75813" lon="2.08146">
        <ele>206.82</ele>
        <time>2020-07-21T10:31:38Z</time>
      </trkpt>
      <trkpt lat="43.75805" lon="2.0816">
        <ele>206.34</ele>
        <time>2020-07-21T10:31:51Z</time>
      </trkpt>
      <trkpt lat="43.75798" lon="2.0817">
        <ele>206.82</ele>
        <time>2020-07-21T10:31:59Z</time>
      </trkpt>
      <trkpt lat="43.7578" lon="2.08204">
        <ele>206.82</ele>
        <time>2020-07-21T10:32:23Z</time>
      </trkpt>
      <trkpt lat="43.75766" lon="2.0823">
        <ele>206.82</ele>
        <time>2020-07-21T10:32:42Z</time>
      </trkpt>
      <trkpt lat="43.75754" lon="2.08256">
        <ele>206.82</ele>
        <time>2020-07-21T10:33:00Z</time>
      </trkpt>
      <trkpt lat="43.75746" lon="2.08275">
        <ele>206.82</ele>
        <time>2020-07-21T10:33:13Z</time>
      </trkpt>
      <trkpt lat="43.75737" lon="2.08296">
        <ele>206.82</ele>
        <time>2020-07-21T10:33:30Z</time>
      </trkpt>
      <trkpt lat="43.75724" lon="2.08321">
        <ele>206.82</ele>
        <time>2020-07-21T10:33:49Z</time>
      </trkpt>
      <trkpt lat="43.75711" lon="2.08345">
        <ele>206.82</ele>
        <time>2020-07-21T10:34:08Z</time>
      </trkpt>
      <trkpt lat="43.75703" lon="2.08358">
        <ele>206.82</ele>
        <time>2020-07-21T10:34:23Z</time>
      </trkpt>
      <trkpt lat="43.75698" lon="2.08361">
        <ele>206.82</ele>
        <time>2020-07-21T10:34:34Z</time>
      </trkpt>
      <trkpt lat="43.75696" lon="2.0836">
        <ele>206.82</ele>
        <time>2020-07-21T10:34:49Z</time>
      </trkpt>
      <trkpt lat="43.75696" lon="2.0836">
        <ele>206.34</ele>
        <time>2020-07-21T10:35:11Z</time>
      </trkpt>
      <trkpt lat="43.75697" lon="2.08362">
        <ele>207.3</ele>
        <time>2020-07-21T10:35:27Z</time>
      </trkpt>
      <trkpt lat="43.75698" lon="2.08363">
        <ele>205.86</ele>
        <time>2020-07-21T10:35:39Z</time>
      </trkpt>
      <trkpt lat="43.75697" lon="2.08363">
        <ele>205.86</ele>
        <time>2020-07-21T10:35:45Z</time>
      </trkpt>
      <trkpt lat="43.75697" lon="2.08365">
        <ele>207.78</ele>
        <time>2020-07-21T10:35:58Z</time>
      </trkpt>
      <trkpt lat="43.75696" lon="2.08366">
        <ele>206.82</ele>
        <time>2020-07-21T10:36:12Z</time>
      </trkpt>
      <trkpt lat="43.75697" lon="2.08365">
        <ele>206.82</ele>
        <time>2020-07-21T10:36:27Z</time>
      </trkpt>
      <trkpt lat="43.75696" lon="2.08366">
        <ele>205.38</ele>
        <time>2020-07-21T10:36:32Z</time>
      </trkpt>
      <trkpt lat="43.75696" lon="2.08365">
        <ele>206.82</ele>
        <time>2020-07-21T10:36:34Z</time>
      </trkpt>
    </trkseg>
  </trk>
</gpx>